Data Archive--May, 2005

Date Time Heat Index Current Temp Wind Chill High Temp Low Temp Humidity Dew Point Wind Speed Gust Wind Direction Rain Barometer
05/01/2005 12:00 a 59.6 59.6 59.6 59.7 59.5 100 59.6 0.0 0.0 --- 0.01 29.603
05/01/2005 12:30 a 59.7 59.7 59.7 59.9 59.6 100 59.7 0.0 0.0 --- 0.00 29.603
05/01/2005 1:00 a 59.6 59.6 59.6 59.8 59.4 100 59.6 0.0 0.0 --- 0.01 29.596
05/01/2005 1:30 a 59.1 59.1 59.1 59.4 58.6 100 59.1 0.0 0.0 --- 0.01 29.604
05/01/2005 2:00 a 58.6 58.6 58.6 58.7 58.4 100 58.6 0.0 0.0 --- 0.00 29.577
05/01/2005 2:30 a 58.3 58.3 58.3 58.6 57.8 100 58.3 0.0 0.0 --- 0.01 29.588
05/01/2005 3:00 a 57.8 57.8 57.8 57.9 57.6 100 57.8 0.0 0.0 --- 0.00 29.579
05/01/2005 3:30 a 57.3 57.3 57.3 57.6 56.7 100 57.3 0.0 0.0 --- 0.01 29.590
05/01/2005 4:00 a 56.4 56.4 56.4 56.7 56.3 100 56.4 0.0 0.0 --- 0.00 29.619
05/01/2005 4:30 a 56.6 56.6 56.6 56.8 56.4 100 56.6 0.0 0.0 --- 0.00 29.613
05/01/2005 5:00 a 56.6 56.6 56.6 56.8 56.4 100 56.6 0.0 0.0 --- 0.00 29.604
05/01/2005 5:30 a 56.5 56.5 56.5 56.6 56.3 100 56.5 0.0 0.0 --- 0.01 29.615
05/01/2005 6:00 a 56.3 56.3 56.3 56.4 56.2 100 56.3 0.0 0.0 --- 0.00 29.623
05/01/2005 6:30 a 55.4 55.4 55.4 56.2 54.4 100 55.4 0.0 3.0 N 0.00 29.624
05/01/2005 7:00 a 54.0 54.0 54.0 54.4 53.5 100 54.0 0.0 4.0 E 0.00 29.646
05/01/2005 7:30 a 52.9 52.9 52.9 53.5 52.4 100 52.9 0.0 2.0 E 0.00 29.672
05/01/2005 8:00 a 52.1 52.1 52.1 52.4 51.8 100 52.1 0.0 0.0 --- 0.01 29.673
05/01/2005 8:30 a 51.5 51.5 51.5 51.8 50.9 100 51.5 0.0 2.0 E 0.00 29.676
05/01/2005 9:00 a 50.8 50.8 50.8 51.0 50.6 100 50.8 0.0 3.0 E 0.01 29.688
05/01/2005 9:30 a 50.7 50.7 50.7 51.3 50.3 100 50.7 0.0 4.0 SE 0.00 29.686
05/01/2005 10:00 a 51.5 51.5 51.5 51.8 51.2 100 51.5 0.0 3.0 SE 0.00 29.678
05/01/2005 10:30 a 51.7 51.7 51.7 52.1 51.2 100 51.7 0.0 4.0 ESE 0.01 29.687
05/01/2005 11:00 a 52.2 52.2 52.2 53.3 51.9 100 52.2 1.0 5.0 ESE 0.00 29.686
05/01/2005 11:30 a 55.0 55.0 55.0 56.4 53.3 100 55.0 1.0 5.0 ESE 0.00 29.686
05/01/2005 12:00 p 56.3 56.3 56.3 57.3 55.6 98 55.7 1.0 4.0 ESE 0.00 29.670
05/01/2005 12:30 p 59.6 59.6 59.6 63.9 57.2 89 56.4 1.0 6.0 ESE 0.00 29.671
05/01/2005 1:00 p 66.0 66.0 66.0 68.6 63.2 79 59.3 1.0 8.0 ESE 0.01 29.670
05/01/2005 1:30 p 67.2 69.4 69.4 73.1 67.1 51 50.5 1.0 7.0 ESE 0.00 29.680
05/01/2005 2:00 p 68.8 72.0 72.0 72.9 70.9 28 37.1 2.0 6.0 ESE 0.00 29.694
05/01/2005 2:30 p 68.2 71.1 71.1 73.0 67.4 36 42.8 1.0 6.0 ESE 0.00 29.687
05/01/2005 3:00 p 65.2 65.2 65.2 67.6 63.4 40 40.3 1.0 5.0 ESE 0.00 29.696
05/01/2005 3:30 p 64.9 64.9 64.9 66.1 63.9 35 36.6 1.0 5.0 SE 0.00 29.698
05/01/2005 4:00 p 65.4 65.4 65.4 66.2 64.1 38 39.2 1.0 5.0 ESE 0.00 29.704
05/01/2005 4:30 p 64.3 64.3 64.3 65.0 63.8 36 36.8 1.0 4.0 SE 0.00 29.714
05/01/2005 5:00 p 64.0 64.0 64.0 64.6 63.6 35 35.8 1.0 8.0 ESE 0.00 29.716
05/01/2005 5:30 p 64.5 64.5 64.5 67.1 63.3 36 37.0 1.0 4.0 ESE 0.00 29.719
05/01/2005 6:00 p 62.3 62.3 62.3 63.7 61.6 37 35.7 1.0 4.0 ESE 0.00 29.724
05/01/2005 6:30 p 61.3 61.3 61.3 62.4 60.5 37 34.8 1.0 7.0 E 0.00 29.737
05/01/2005 7:00 p 60.1 60.1 60.1 60.7 59.2 39 35.1 1.0 6.0 SSE 0.00 29.749
05/01/2005 7:30 p 58.4 58.4 58.4 59.2 57.4 41 34.8 1.0 7.0 ESE 0.00 29.764
05/01/2005 8:00 p 56.5 56.5 56.5 57.4 55.4 42 33.7 0.0 3.0 SSW 0.00 29.773
05/01/2005 8:30 p 54.8 54.8 54.8 55.4 54.2 44 33.3 0.0 1.0 SSW 0.00 29.792
05/01/2005 9:00 p 53.1 53.1 53.1 54.3 52.0 51 35.5 0.0 0.0 --- 0.00 29.811
05/01/2005 9:30 p 51.5 51.5 51.5 52.0 51.2 54 35.4 0.0 2.0 SSW 0.00 29.828
05/01/2005 10:00 p 52.4 52.4 52.4 53.4 51.5 43 30.6 0.0 3.0 SE 0.00 29.843
05/01/2005 10:30 p 52.3 52.3 52.3 53.5 50.9 49 33.7 0.0 3.0 ESE 0.00 29.852
05/01/2005 11:00 p 50.2 50.2 50.2 50.9 49.1 56 35.1 0.0 2.0 N 0.00 29.856
05/01/2005 11:30 p 47.9 47.9 47.9 49.1 46.3 66 37.1 0.0 0.0 --- 0.00 29.867
05/02/2005 12:00 a 45.2 45.2 45.2 46.3 44.4 67 34.9 0.0 0.0 --- 0.00 29.870
05/02/2005 12:30 a 43.8 43.8 43.8 44.5 43.3 74 36.1 0.0 0.0 --- 0.00 29.880
05/02/2005 1:00 a 42.6 42.6 42.6 43.3 42.3 78 36.2 0.0 0.0 --- 0.00 29.885
05/02/2005 1:30 a 41.8 41.8 41.8 42.3 41.2 79 35.8 0.0 0.0 --- 0.00 29.883
05/02/2005 2:00 a 40.6 40.6 40.6 41.1 39.9 80 34.9 0.0 0.0 --- 0.00 29.874
05/02/2005 2:30 a 39.4 39.4 39.4 39.9 38.9 83 34.7 0.0 0.0 --- 0.00 29.869
05/02/2005 3:00 a 38.4 38.4 38.4 38.9 38.0 87 34.9 0.0 0.0 --- 0.00 29.870
05/02/2005 3:30 a 37.6 37.6 37.6 38.0 37.3 90 34.9 0.0 0.0 --- 0.00 29.869
05/02/2005 4:00 a 36.8 36.8 36.8 37.3 36.2 92 34.7 0.0 0.0 --- 0.00 29.865
05/02/2005 4:30 a 35.9 35.9 35.9 36.2 35.6 93 34.1 0.0 0.0 --- 0.00 29.864
05/02/2005 5:00 a 35.3 35.3 35.3 35.6 35.1 94 33.7 0.0 0.0 --- 0.00 29.864
05/02/2005 5:30 a 35.0 35.0 35.0 35.3 34.7 94 33.5 0.0 0.0 --- 0.00 29.870
05/02/2005 6:00 a 34.6 34.6 34.6 34.7 34.5 95 33.3 0.0 0.0 --- 0.00 29.865
05/02/2005 6:30 a 35.0 35.0 35.0 35.6 34.5 95 33.7 0.0 0.0 --- 0.00 29.871
05/02/2005 7:00 a 36.5 36.5 36.5 38.0 35.6 95 35.2 0.0 0.0 --- 0.00 29.872
05/02/2005 7:30 a 41.8 41.8 41.8 44.1 38.1 84 37.3 0.0 0.0 --- 0.00 29.885
05/02/2005 8:00 a 44.7 44.7 44.7 46.4 43.9 73 36.6 0.0 0.0 --- 0.00 29.885
05/02/2005 8:30 a 48.1 48.1 48.1 50.2 46.4 63 36.1 0.0 0.0 --- 0.00 29.887
05/02/2005 9:00 a 54.7 54.7 54.7 58.5 50.2 45 33.8 0.0 2.0 NNW 0.00 29.877
05/02/2005 9:30 a 58.9 58.9 58.9 59.2 58.5 44 37.0 0.0 3.0 N 0.00 29.866
05/02/2005 10:00 a 59.3 59.3 59.3 60.1 58.6 41 35.6 1.0 4.0 NW 0.00 29.856
05/02/2005 10:30 a 62.6 62.6 62.6 65.5 60.0 33 33.1 0.0 3.0 NW 0.00 29.853
05/02/2005 11:00 a 62.4 62.4 62.4 63.3 62.0 38 36.5 0.0 3.0 SE 0.00 29.844
05/02/2005 11:30 a 63.0 63.0 63.0 63.5 62.5 34 34.2 1.0 4.0 NW 0.00 29.831
05/02/2005 12:00 p 65.3 65.3 65.3 67.0 63.5 33 35.5 0.0 4.0 NNW 0.00 29.806
05/02/2005 12:30 p 67.5 67.5 67.5 69.6 66.3 31 35.8 1.0 3.0 NW 0.00 29.795
05/02/2005 1:00 p 63.1 63.1 63.1 66.3 61.5 36 35.7 1.0 5.0 SSE 0.00 29.794
05/02/2005 1:30 p 63.7 63.7 63.7 64.6 61.8 33 34.1 1.0 4.0 SE 0.00 29.789
05/02/2005 2:00 p 64.9 64.9 64.9 71.8 63.1 27 30.1 1.0 5.0 SE 0.00 29.783
05/02/2005 2:30 p 71.0 72.9 72.9 76.0 69.3 31 40.5 1.0 4.0 NW 0.00 29.768
05/02/2005 3:00 p 65.3 65.3 65.3 69.3 63.3 34 36.2 1.0 3.0 NW 0.00 29.759
05/02/2005 3:30 p 62.1 62.1 62.1 63.3 60.8 39 36.9 1.0 4.0 W 0.00 29.754
05/02/2005 4:00 p 58.4 58.4 58.4 60.8 54.0 78 51.6 1.0 5.0 NNW 0.00 29.762
05/02/2005 4:30 p 55.0 55.0 55.0 56.8 53.6 77 47.9 1.0 4.0 SE 0.00 29.753
05/02/2005 5:00 p 57.2 57.2 57.2 57.5 56.8 71 47.9 0.0 3.0 SE 0.00 29.761
05/02/2005 5:30 p 56.5 56.5 56.5 57.2 56.1 76 49.0 0.0 4.0 ESE 0.00 29.764
05/02/2005 6:00 p 54.3 54.3 54.3 56.1 51.5 83 49.3 1.0 8.0 ESE 0.00 29.813
05/02/2005 6:30 p 48.3 48.3 48.3 51.5 46.8 93 46.4 1.0 6.0 ESE 0.00 29.823
05/02/2005 7:00 p 46.5 46.5 46.5 46.8 45.9 95 45.1 1.0 4.0 ESE 0.00 29.828
05/02/2005 7:30 p 45.2 45.2 45.2 45.9 44.4 98 44.7 0.0 4.0 E 0.00 29.849
05/02/2005 8:00 p 44.2 44.2 44.2 44.4 44.0 99 43.9 0.0 0.0 --- 0.00 29.836
05/02/2005 8:30 p 43.8 43.8 43.8 44.0 43.7 99 43.5 0.0 0.0 --- 0.00 29.841
05/02/2005 9:00 p 44.0 44.0 44.0 44.2 43.7 99 43.7 0.0 0.0 --- 0.00 29.868
05/02/2005 9:30 p 43.3 43.3 43.3 44.1 42.3 99 43.0 0.0 0.0 --- 0.00 29.879
05/02/2005 10:00 p 41.6 41.6 41.6 42.2 41.2 99 41.3 0.0 0.0 --- 0.00 29.890
05/02/2005 10:30 p 41.1 41.1 41.1 41.4 40.6 99 40.8 0.0 0.0 --- 0.00 29.885
05/02/2005 11:00 p 40.5 40.5 40.5 40.7 40.2 98 40.0 0.0 0.0 --- 0.00 29.890
05/02/2005 11:30 p 39.7 39.7 39.7 40.2 39.4 98 39.2 0.0 0.0 --- 0.00 29.888
05/03/2005 12:00 a 39.4 39.4 39.4 39.5 39.1 98 38.9 0.0 0.0 --- 0.00 29.889
05/03/2005 12:30 a 38.8 38.8 38.8 39.1 38.5 98 38.3 0.0 0.0 --- 0.00 29.894
05/03/2005 1:00 a 38.2 38.2 38.2 38.5 37.9 98 37.7 0.0 0.0 --- 0.00 29.900
05/03/2005 1:30 a 38.1 38.1 38.1 38.3 37.9 98 37.6 0.0 0.0 --- 0.00 29.901
05/03/2005 2:00 a 38.7 38.7 38.7 39.0 38.3 99 38.4 0.0 0.0 --- 0.00 29.889
05/03/2005 2:30 a 38.3 38.3 38.3 38.6 38.0 98 37.8 0.0 0.0 --- 0.00 29.887
05/03/2005 3:00 a 37.9 37.9 37.9 38.3 37.4 98 37.4 0.0 0.0 --- 0.00 29.884
05/03/2005 3:30 a 37.1 37.1 37.1 37.4 36.9 99 36.8 0.0 0.0 --- 0.00 29.890
05/03/2005 4:00 a 37.3 37.3 37.3 37.4 37.1 99 37.0 0.0 0.0 --- 0.00 29.892
05/03/2005 4:30 a 37.1 37.1 37.1 37.3 36.7 98 36.6 0.0 0.0 --- 0.00 29.902
05/03/2005 5:00 a 36.4 36.4 36.4 36.8 35.8 98 35.9 0.0 0.0 --- 0.00 29.910
05/03/2005 5:30 a 35.3 35.3 35.3 35.8 35.1 98 34.8 0.0 0.0 --- 0.00 29.914
05/03/2005 6:00 a 34.8 34.8 34.8 35.1 34.6 98 34.3 0.0 0.0 --- 0.00 29.921
05/03/2005 6:30 a 34.7 34.7 34.7 34.9 34.4 98 34.2 0.0 0.0 --- 0.00 29.925
05/03/2005 7:00 a 35.9 35.9 35.9 37.5 34.9 99 35.6 0.0 0.0 --- 0.00 29.944
05/03/2005 7:30 a 40.5 40.5 40.5 41.9 37.6 98 40.0 0.0 0.0 --- 0.00 29.939
05/03/2005 8:00 a 41.4 41.4 41.4 42.0 41.0 99 41.1 0.0 1.0 --- 0.01 29.944
05/03/2005 8:30 a 43.1 43.1 43.1 44.3 42.0 99 42.8 0.0 2.0 NNE 0.00 29.952
05/03/2005 9:00 a 47.2 47.2 47.2 49.7 44.3 97 46.4 0.0 2.0 ESE 0.00 29.940
05/03/2005 9:30 a 50.2 50.2 50.2 50.6 49.5 97 49.4 0.0 2.0 SSW 0.00 29.946
05/03/2005 10:00 a 51.1 51.1 51.1 51.4 50.4 97 50.3 0.0 3.0 N 0.00 29.952
05/03/2005 10:30 a 53.8 53.8 53.8 56.1 51.1 96 52.7 0.0 3.0 NE 0.00 29.957
05/03/2005 11:00 a 53.5 53.5 53.5 54.8 52.9 96 52.4 0.0 3.0 NNW 0.00 29.957
05/03/2005 11:30 a 55.1 55.1 55.1 56.4 53.9 90 52.2 0.0 4.0 N 0.00 29.953
05/03/2005 12:00 p 57.5 57.5 57.5 58.9 55.8 65 45.8 0.0 3.0 SE 0.00 29.948
05/03/2005 12:30 p 59.2 59.2 59.2 60.6 58.0 48 39.5 1.0 4.0 SE 0.00 29.944
05/03/2005 1:00 p 59.4 59.4 59.4 60.4 57.6 47 39.2 0.0 3.0 SSE 0.00 29.948
05/03/2005 1:30 p 60.6 60.6 60.6 62.1 57.8 37 34.2 1.0 4.0 ESE 0.00 29.946
05/03/2005 2:00 p 67.9 67.9 67.9 75.6 59.9 26 31.8 1.0 3.0 NW 0.00 29.943
05/03/2005 2:30 p 65.2 65.2 65.2 75.5 58.0 40 40.3 1.0 4.0 ESE 0.00 29.943
05/03/2005 3:00 p 58.5 58.5 58.5 60.4 57.2 37 32.3 0.0 3.0 NNW 0.00 29.940
05/03/2005 3:30 p 58.4 58.4 58.4 60.2 57.7 39 33.6 1.0 5.0 ESE 0.00 29.940
05/03/2005 4:00 p 57.5 57.5 57.5 58.0 57.2 41 34.0 0.0 4.0 ENE 0.00 29.943
05/03/2005 4:30 p 57.8 57.8 57.8 58.2 57.3 37 31.7 0.0 3.0 ESE 0.00 29.942
05/03/2005 5:00 p 57.6 57.6 57.6 58.2 57.3 38 32.2 0.0 3.0 SE 0.00 29.946
05/03/2005 5:30 p 59.4 59.4 59.4 61.3 58.2 35 31.8 0.0 3.0 ENE 0.00 29.942
05/03/2005 6:00 p 56.4 56.4 56.4 58.2 55.7 36 29.8 0.0 2.0 SSE 0.00 29.944
05/03/2005 6:30 p 56.2 56.2 56.2 57.1 55.1 40 32.2 1.0 4.0 ESE 0.00 29.956
05/03/2005 7:00 p 54.3 54.3 54.3 55.1 53.4 43 32.3 0.0 4.0 SSW 0.00 29.977
05/03/2005 7:30 p 52.4 52.4 52.4 53.3 51.6 47 32.8 0.0 1.0 SSW 0.00 29.987
05/03/2005 8:00 p 51.3 51.3 51.3 51.7 50.4 49 32.8 0.0 0.0 --- 0.00 29.998
05/03/2005 8:30 p 48.4 48.4 48.4 50.3 47.0 60 35.2 0.0 0.0 --- 0.00 30.016
05/03/2005 9:00 p 45.9 45.9 45.9 47.0 44.7 65 34.8 0.0 0.0 --- 0.00 30.029
05/03/2005 9:30 p 43.7 43.7 43.7 44.7 43.0 72 35.3 0.0 0.0 --- 0.00 30.037
05/03/2005 10:00 p 42.4 42.4 42.4 43.0 41.7 75 35.1 0.0 0.0 --- 0.00 30.049
05/03/2005 10:30 p 41.0 41.0 41.0 41.7 40.3 80 35.3 0.0 0.0 --- 0.00 30.057
05/03/2005 11:00 p 39.9 39.9 39.9 40.3 39.5 85 35.8 0.0 0.0 --- 0.00 30.060
05/03/2005 11:30 p 39.1 39.1 39.1 39.5 38.5 87 35.6 0.0 0.0 --- 0.00 30.074
05/04/2005 12:00 a 38.3 38.3 38.3 38.5 38.1 89 35.3 0.0 0.0 --- 0.00 30.071
05/04/2005 12:30 a 38.1 38.1 38.1 38.5 37.7 90 35.4 0.0 0.0 --- 0.00 30.077
05/04/2005 1:00 a 37.3 37.3 37.3 37.7 36.9 91 34.9 0.0 0.0 --- 0.00 30.077
05/04/2005 1:30 a 36.4 36.4 36.4 36.9 36.0 92 34.3 0.0 0.0 --- 0.00 30.076
05/04/2005 2:00 a 35.8 35.8 35.8 36.0 35.6 94 34.2 0.0 0.0 --- 0.00 30.077
05/04/2005 2:30 a 35.4 35.4 35.4 35.6 35.1 94 33.8 0.0 0.0 --- 0.00 30.084
05/04/2005 3:00 a 35.0 35.0 35.0 35.1 34.8 94 33.5 0.0 0.0 --- 0.00 30.091
05/04/2005 3:30 a 34.5 34.5 34.5 34.8 34.2 94 33.0 0.0 0.0 --- 0.00 30.106
05/04/2005 4:00 a 34.2 34.2 34.2 34.4 34.1 95 32.9 0.0 0.0 --- 0.00 30.114
05/04/2005 4:30 a 34.1 34.1 34.1 34.2 34.0 95 32.8 0.0 0.0 --- 0.00 30.117
05/04/2005 5:00 a 34.0 34.0 34.0 34.1 33.9 95 32.7 0.0 0.0 --- 0.00 30.128
05/04/2005 5:30 a 34.0 34.0 34.0 34.2 33.8 96 33.0 0.0 0.0 --- 0.00 30.140
05/04/2005 6:00 a 34.6 34.6 34.6 35.1 34.2 96 33.6 0.0 0.0 --- 0.00 30.154
05/04/2005 6:30 a 36.1 36.1 36.1 37.1 35.1 96 35.1 0.0 0.0 --- 0.00 30.167
05/04/2005 7:00 a 38.4 38.4 38.4 39.7 37.1 95 37.1 0.0 0.0 --- 0.00 30.177
05/04/2005 7:30 a 41.4 41.4 41.4 43.4 39.7 89 38.4 0.0 0.0 --- 0.00 30.178
05/04/2005 8:00 a 44.4 44.4 44.4 45.7 43.4 78 38.0 0.0 0.0 --- 0.00 30.189
05/04/2005 8:30 a 47.0 47.0 47.0 48.5 45.7 71 38.1 0.0 0.0 --- 0.00 30.188
05/04/2005 9:00 a 50.8 50.8 50.8 53.2 48.4 55 35.2 0.0 4.0 ESE 0.00 30.190
05/04/2005 9:30 a 53.0 53.0 53.0 53.2 52.3 54 36.8 0.0 4.0 ESE 0.00 30.198
05/04/2005 10:00 a 52.8 52.8 52.8 54.3 52.2 51 35.2 0.0 2.0 ESE 0.00 30.207
05/04/2005 10:30 a 55.6 55.6 55.6 56.9 54.4 39 31.1 0.0 2.0 NNE 0.00 30.212
05/04/2005 11:00 a 57.2 57.2 57.2 57.8 56.6 35 29.8 0.0 3.0 NNE 0.00 30.212
05/04/2005 11:30 a 57.7 57.7 57.7 58.4 56.8 32 28.1 1.0 4.0 ENE 0.00 30.210
05/04/2005 12:00 p 59.6 59.6 59.6 61.5 58.0 34 31.2 0.0 3.0 NNE 0.00 30.204
05/04/2005 12:30 p 63.7 63.7 63.7 68.0 61.6 27 29.1 1.0 7.0 ESE 0.00 30.206
05/04/2005 1:00 p 67.0 67.0 67.0 71.9 62.5 28 32.8 0.0 3.0 E 0.00 30.198
05/04/2005 1:30 p 61.2 61.2 61.2 63.0 60.5 29 28.7 0.0 4.0 SSW 0.00 30.191
05/04/2005 2:00 p 67.0 70.5 70.5 74.8 63.1 25 33.0 1.0 4.0 NW 0.00 30.193
05/04/2005 2:30 p 65.3 65.3 65.3 69.5 62.8 29 32.3 0.0 4.0 SSE 0.00 30.194
05/04/2005 3:00 p 62.0 62.0 62.0 65.0 60.7 33 32.6 0.0 4.0 SE 0.00 30.192
05/04/2005 3:30 p 60.2 60.2 60.2 61.4 59.2 34 31.8 0.0 3.0 SE 0.00 30.188
05/04/2005 4:00 p 62.4 62.4 62.4 63.5 61.0 31 31.4 1.0 3.0 NNW 0.00 30.181
05/04/2005 4:30 p 60.7 60.7 60.7 61.7 59.9 31 29.9 0.0 4.0 SE 0.00 30.185
05/04/2005 5:00 p 61.8 61.8 61.8 62.7 61.0 29 29.2 0.0 3.0 ESE 0.00 30.191
05/04/2005 5:30 p 59.3 59.3 59.3 61.0 58.6 32 29.5 0.0 2.0 ENE 0.00 30.197
05/04/2005 6:00 p 58.3 58.3 58.3 58.8 57.8 35 30.8 0.0 4.0 ESE 0.00 30.203
05/04/2005 6:30 p 57.3 57.3 57.3 57.8 56.8 33 28.5 0.0 3.0 ESE 0.00 30.215
05/04/2005 7:00 p 56.9 56.9 56.9 57.2 56.6 35 29.6 0.0 5.0 ESE 0.00 30.229
05/04/2005 7:30 p 56.1 56.1 56.1 56.6 55.6 40 32.1 0.0 4.0 N 0.00 30.240
05/04/2005 8:00 p 55.1 55.1 55.1 55.8 53.6 42 32.4 0.0 5.0 ESE 0.00 30.250
05/04/2005 8:30 p 52.4 52.4 52.4 53.6 51.7 49 33.8 0.0 1.0 ESE 0.00 30.259
05/04/2005 9:00 p 50.9 50.9 50.9 51.7 49.8 54 34.9 0.0 1.0 ESE 0.00 30.271
05/04/2005 9:30 p 48.9 48.9 48.9 49.8 47.9 60 35.6 0.0 0.0 --- 0.00 30.292
05/04/2005 10:00 p 47.5 47.5 47.5 47.9 47.2 61 34.7 0.0 0.0 --- 0.00 30.297
05/04/2005 10:30 p 47.3 47.3 47.3 47.8 47.1 69 37.7 0.0 0.0 --- 0.00 30.304
05/04/2005 11:00 p 47.6 47.6 47.6 48.1 47.2 65 36.4 0.0 0.0 --- 0.00 30.313
05/04/2005 11:30 p 47.6 47.6 47.6 47.8 47.4 65 36.4 0.0 0.0 --- 0.00 30.321
05/05/2005 12:00 a 47.2 47.2 47.2 47.5 46.7 70 37.9 0.0 0.0 --- 0.00 30.326
05/05/2005 12:30 a 45.7 45.7 45.7 46.7 44.5 75 38.2 0.0 0.0 --- 0.00 30.330
05/05/2005 1:00 a 43.5 43.5 43.5 44.5 42.8 78 37.1 0.0 0.0 --- 0.00 30.336
05/05/2005 1:30 a 42.3 42.3 42.3 42.8 41.7 82 37.2 0.0 0.0 --- 0.00 30.330
05/05/2005 2:00 a 41.0 41.0 41.0 41.7 40.5 84 36.5 0.0 0.0 --- 0.00 30.329
05/05/2005 2:30 a 40.0 40.0 40.0 40.5 39.3 85 35.9 0.0 0.0 --- 0.00 30.334
05/05/2005 3:00 a 39.0 39.0 39.0 39.4 38.7 86 35.2 0.0 0.0 --- 0.00 30.340
05/05/2005 3:30 a 38.1 38.1 38.1 38.6 37.7 87 34.6 0.0 0.0 --- 0.00 30.344
05/05/2005 4:00 a 37.9 37.9 37.9 38.2 37.6 87 34.4 0.0 0.0 --- 0.00 30.347
05/05/2005 4:30 a 37.3 37.3 37.3 37.6 37.1 88 34.1 0.0 0.0 --- 0.00 30.352
05/05/2005 5:00 a 37.0 37.0 37.0 37.4 36.5 90 34.3 0.0 0.0 --- 0.00 30.370
05/05/2005 5:30 a 36.0 36.0 36.0 36.5 35.8 91 33.6 0.0 0.0 --- 0.00 30.370
05/05/2005 6:00 a 35.7 35.7 35.7 35.9 35.4 92 33.6 0.0 0.0 --- 0.00 30.377
05/05/2005 6:30 a 35.6 35.6 35.6 36.1 35.3 93 33.8 0.0 0.0 --- 0.00 30.387
05/05/2005 7:00 a 37.3 37.3 37.3 39.4 36.1 91 34.9 0.0 0.0 --- 0.00 30.397
05/05/2005 7:30 a 43.7 43.7 43.7 46.7 39.4 67 33.5 0.0 0.0 --- 0.00 30.401
05/05/2005 8:00 a 47.2 47.2 47.2 48.2 46.6 66 36.4 0.0 0.0 --- 0.00 30.411
05/05/2005 8:30 a 49.8 49.8 49.8 51.4 48.2 58 35.6 0.0 0.0 --- 0.00 30.409
05/05/2005 9:00 a 54.6 54.6 54.6 57.2 51.4 47 34.8 0.0 0.0 --- 0.00 30.414
05/05/2005 9:30 a 56.8 56.8 56.8 57.5 56.3 46 36.3 0.0 0.0 --- 0.00 30.417
05/05/2005 10:00 a 57.8 57.8 57.8 58.0 57.5 39 33.0 0.0 0.0 --- 0.00 30.416
05/05/2005 10:30 a 59.8 59.8 59.8 60.9 57.7 37 33.5 0.0 0.0 --- 0.00 30.420
05/05/2005 11:00 a 58.9 58.9 58.9 59.7 58.6 33 29.9 0.0 0.0 --- 0.00 30.420
05/05/2005 11:30 a 60.6 60.6 60.6 61.4 59.1 34 32.1 1.0 4.0 NW 0.00 30.414
05/05/2005 12:00 p 62.4 62.4 62.4 63.4 61.2 33 32.9 1.0 3.0 NNW 0.00 30.407
05/05/2005 12:30 p 64.7 64.7 64.7 69.0 61.4 25 28.1 1.0 6.0 NW 0.00 30.389
05/05/2005 1:00 p 63.8 68.0 68.0 72.3 64.6 28 33.7 1.0 4.0 NW 0.00 30.383
05/05/2005 1:30 p 68.3 71.6 71.6 74.4 66.0 23 31.9 1.0 5.0 NW 0.00 30.373
05/05/2005 2:00 p 67.6 67.6 67.6 72.4 65.0 24 29.6 1.0 4.0 NNW 0.00 30.365
05/05/2005 2:30 p 71.2 73.5 73.5 76.5 70.4 26 36.5 1.0 7.0 NW 0.00 30.357
05/05/2005 3:00 p 66.9 66.9 66.9 72.0 64.2 28 32.8 1.0 6.0 NW 0.00 30.342
05/05/2005 3:30 p 64.1 64.1 64.1 64.7 63.2 28 30.4 1.0 5.0 NW 0.00 30.336
05/05/2005 4:00 p 63.3 63.3 63.3 64.4 62.1 31 32.2 2.0 6.0 NNW 0.00 30.332
05/05/2005 4:30 p 61.9 61.9 61.9 62.3 61.6 31 31.0 1.0 7.0 NNW 0.00 30.332
05/05/2005 5:00 p 61.4 61.4 61.4 62.1 60.5 32 31.3 1.0 6.0 NNW 0.00 30.327
05/05/2005 5:30 p 60.7 60.7 60.7 61.5 59.9 34 32.2 1.0 7.0 NNW 0.00 30.320
05/05/2005 6:00 p 59.1 59.1 59.1 59.9 58.4 36 32.2 1.0 4.0 N 0.00 30.314
05/05/2005 6:30 p 57.6 57.6 57.6 58.4 56.9 39 32.8 1.0 4.0 NW 0.00 30.315
05/05/2005 7:00 p 56.4 56.4 56.4 56.9 55.7 40 32.4 0.0 4.0 NNW 0.00 30.323
05/05/2005 7:30 p 54.9 54.9 54.9 55.7 54.1 43 32.8 0.0 3.0 N 0.00 30.322
05/05/2005 8:00 p 53.2 53.2 53.2 54.1 52.6 44 31.9 0.0 4.0 NNW 0.00 30.322
05/05/2005 8:30 p 51.7 51.7 51.7 52.6 50.8 50 33.7 0.0 0.0 --- 0.00 30.329
05/05/2005 9:00 p 50.2 50.2 50.2 50.8 49.5 52 33.3 0.0 2.0 NNW 0.00 30.333
05/05/2005 9:30 p 48.5 48.5 48.5 49.5 47.7 58 34.4 0.0 0.0 --- 0.00 30.341
05/05/2005 10:00 p 47.1 47.1 47.1 47.7 46.4 60 33.9 0.0 0.0 --- 0.00 30.343
05/05/2005 10:30 p 46.0 46.0 46.0 46.5 45.4 65 34.9 0.0 0.0 --- 0.00 30.340
05/05/2005 11:00 p 44.9 44.9 44.9 45.4 44.3 68 35.0 0.0 0.0 --- 0.00 30.338
05/05/2005 11:30 p 43.6 43.6 43.6 44.3 42.9 74 35.9 0.0 0.0 --- 0.00 30.336
05/06/2005 12:00 a 42.6 42.6 42.6 42.9 42.3 78 36.2 0.0 0.0 --- 0.00 30.328
05/06/2005 12:30 a 41.9 41.9 41.9 42.3 41.5 80 36.2 0.0 0.0 --- 0.00 30.319
05/06/2005 1:00 a 40.9 40.9 40.9 41.5 40.5 84 36.4 0.0 0.0 --- 0.00 30.308
05/06/2005 1:30 a 40.3 40.3 40.3 40.5 40.2 84 35.9 0.0 0.0 --- 0.00 30.288
05/06/2005 2:00 a 40.2 40.2 40.2 40.3 40.1 86 36.4 0.0 0.0 --- 0.00 30.283
05/06/2005 2:30 a 39.9 39.9 39.9 40.1 39.7 86 36.1 0.0 0.0 --- 0.00 30.281
05/06/2005 3:00 a 39.7 39.7 39.7 39.8 39.6 87 36.2 0.0 0.0 --- 0.00 30.269
05/06/2005 3:30 a 39.7 39.7 39.7 39.8 39.6 88 36.4 0.0 0.0 --- 0.00 30.269
05/06/2005 4:00 a 39.7 39.7 39.7 39.9 39.6 87 36.2 0.0 0.0 --- 0.00 30.270
05/06/2005 4:30 a 39.8 39.8 39.8 39.9 39.7 89 36.8 0.0 0.0 --- 0.00 30.258
05/06/2005 5:00 a 39.6 39.6 39.6 39.9 39.3 89 36.6 0.0 0.0 --- 0.00 30.251
05/06/2005 5:30 a 39.4 39.4 39.4 39.5 39.4 89 36.4 0.0 0.0 --- 0.00 30.255
05/06/2005 6:00 a 39.5 39.5 39.5 39.7 39.4 89 36.5 0.0 0.0 --- 0.00 30.259
05/06/2005 6:30 a 40.2 40.2 40.2 41.0 39.7 88 36.9 0.0 0.0 --- 0.00 30.256
05/06/2005 7:00 a 41.6 41.6 41.6 42.7 41.0 84 37.1 0.0 0.0 --- 0.00 30.243
05/06/2005 7:30 a 44.6 44.6 44.6 46.3 42.7 78 38.2 0.0 0.0 --- 0.00 30.236
05/06/2005 8:00 a 47.4 47.4 47.4 48.4 46.3 76 40.2 0.0 0.0 --- 0.00 30.229
05/06/2005 8:30 a 49.2 49.2 49.2 49.9 48.4 72 40.6 0.0 1.0 NNW 0.00 30.232
05/06/2005 9:00 a 50.3 50.3 50.3 50.7 49.9 70 40.9 0.0 1.0 N 0.00 30.237
05/06/2005 9:30 a 51.1 51.1 51.1 51.5 50.7 61 38.1 0.0 1.0 N 0.00 30.239
05/06/2005 10:00 a 51.8 51.8 51.8 52.1 51.5 54 35.7 0.0 3.0 W 0.00 30.241
05/06/2005 10:30 a 52.7 52.7 52.7 53.0 52.1 48 33.6 1.0 3.0 NW 0.00 30.240
05/06/2005 11:00 a 53.6 53.6 53.6 54.0 53.0 48 34.4 0.0 4.0 WNW 0.00 30.227
05/06/2005 11:30 a 54.5 54.5 54.5 54.8 54.0 49 35.7 0.0 3.0 SSE 0.00 30.219
05/06/2005 12:00 p 54.7 54.7 54.7 54.8 54.5 51 36.9 1.0 4.0 SW 0.00 30.209
05/06/2005 12:30 p 54.7 54.7 54.7 55.1 54.4 51 36.9 1.0 3.0 NW 0.00 30.205
05/06/2005 1:00 p 55.5 55.5 55.5 56.3 55.1 51 37.7 1.0 4.0 W 0.00 30.189
05/06/2005 1:30 p 56.2 56.2 56.2 56.6 56.0 48 36.8 1.0 3.0 WSW 0.00 30.170
05/06/2005 2:00 p 56.5 56.5 56.5 56.9 56.1 50 38.1 1.0 4.0 W 0.00 30.153
05/06/2005 2:30 p 56.7 56.7 56.7 57.2 56.2 50 38.3 1.0 4.0 W 0.00 30.131
05/06/2005 3:00 p 58.0 58.0 58.0 58.5 57.3 48 38.4 1.0 3.0 WSW 0.00 30.117
05/06/2005 3:30 p 57.2 57.2 57.2 58.0 56.7 51 39.3 1.0 4.0 WSW 0.00 30.089
05/06/2005 4:00 p 56.2 56.2 56.2 56.7 55.8 52 38.8 1.0 5.0 WSW 0.00 30.074
05/06/2005 4:30 p 55.5 55.5 55.5 55.8 55.1 50 37.2 1.0 4.0 SW 0.00 30.081
05/06/2005 5:00 p 54.3 54.3 54.3 55.1 53.4 43 32.3 1.0 4.0 WSW 0.00 30.089
05/06/2005 5:30 p 53.0 53.0 53.0 53.5 52.8 43 31.1 1.0 4.0 WSW 0.00 30.078
05/06/2005 6:00 p 52.7 52.7 52.7 52.9 52.3 52 35.6 2.0 7.0 WSW 0.00 30.078
05/06/2005 6:30 p 51.4 51.4 51.4 52.3 49.9 68 41.2 1.0 5.0 WNW 0.00 30.066
05/06/2005 7:00 p 49.7 49.7 49.7 50.3 49.4 63 37.6 2.0 6.0 W 0.00 30.058
05/06/2005 7:30 p 50.1 50.1 50.1 50.4 49.8 59 36.3 1.0 4.0 W 0.00 30.047
05/06/2005 8:00 p 50.0 50.0 50.0 50.1 50.0 60 36.7 0.0 5.0 W 0.00 30.037
05/06/2005 8:30 p 49.6 49.6 49.6 50.0 49.4 66 38.7 0.0 3.0 W 0.00 30.032
05/06/2005 9:00 p 48.5 48.5 48.5 49.4 47.9 79 42.3 1.0 3.0 WSW 0.00 30.031
05/06/2005 9:30 p 47.5 47.5 47.5 47.9 47.3 77 40.7 0.0 5.0 WSW 0.00 30.024
05/06/2005 10:00 p 48.3 48.3 48.3 48.5 47.8 69 38.6 1.0 4.0 WSW 0.00 30.015
05/06/2005 10:30 p 48.3 48.3 48.3 48.4 48.2 70 39.0 0.0 3.0 WSW 0.00 30.000
05/06/2005 11:00 p 48.3 48.3 48.3 48.4 48.2 70 39.0 0.0 3.0 WSW 0.00 29.986
05/06/2005 11:30 p 48.2 48.2 48.2 48.4 47.5 76 41.0 1.0 3.0 W 0.00 29.978
05/07/2005 12:00 a 46.4 46.4 46.4 47.5 45.5 94 44.8 0.0 3.0 W 0.00 29.976
05/07/2005 12:30 a 45.3 45.3 45.3 45.5 44.9 96 44.2 0.0 2.0 WSW 0.00 29.969
05/07/2005 1:00 a 44.7 44.7 44.7 44.9 44.6 97 43.9 0.0 2.0 WSW 0.00 29.947
05/07/2005 1:30 a 44.7 44.7 44.7 45.0 44.5 98 44.2 0.0 3.0 WSW 0.00 29.926
05/07/2005 2:00 a 45.2 45.2 45.2 45.5 44.9 98 44.7 0.0 3.0 WSW 0.00 29.907
05/07/2005 2:30 a 45.7 45.7 45.7 46.0 45.5 98 45.2 0.0 3.0 WSW 0.00 29.893
05/07/2005 3:00 a 46.2 46.2 46.2 46.3 46.0 98 45.7 0.0 3.0 WNW 0.00 29.879
05/07/2005 3:30 a 46.3 46.3 46.3 46.4 46.2 96 45.2 0.0 3.0 W 0.00 29.871
05/07/2005 4:00 a 46.5 46.5 46.5 46.6 46.4 96 45.4 0.0 3.0 SSE 0.00 29.857
05/07/2005 4:30 a 46.3 46.3 46.3 46.4 46.3 95 44.9 0.0 2.0 SSE 0.00 29.842
05/07/2005 5:00 a 46.3 46.3 46.3 46.4 46.3 94 44.7 0.0 2.0 SE 0.00 29.846
05/07/2005 5:30 a 46.4 46.4 46.4 46.5 46.4 91 43.9 0.0 3.0 SSW 0.00 29.838
05/07/2005 6:00 a 46.5 46.5 46.5 46.6 46.4 90 43.7 0.0 4.0 SE 0.00 29.833
05/07/2005 6:30 a 46.9 46.9 46.9 47.3 46.5 89 43.8 1.0 4.0 ESE 0.00 29.832
05/07/2005 7:00 a 47.7 47.7 47.7 48.1 47.3 88 44.3 1.0 6.0 ESE 0.00 29.832
05/07/2005 7:30 a 48.7 48.7 48.7 49.2 48.1 82 43.5 1.0 6.0 ESE 0.00 29.831
05/07/2005 8:00 a 49.6 49.6 49.6 50.1 49.2 77 42.7 1.0 7.0 SE 0.00 29.823
05/07/2005 8:30 a 50.6 50.6 50.6 51.2 50.0 69 40.8 1.0 6.0 ESE 0.00 29.820
05/07/2005 9:00 a 52.2 52.2 52.2 53.4 51.1 64 40.4 1.0 5.0 SSE 0.00 29.815
05/07/2005 9:30 a 54.4 54.4 54.4 55.6 53.4 54 38.1 1.0 6.0 S 0.00 29.804
05/07/2005 10:00 a 55.8 55.8 55.8 56.3 55.6 51 38.0 1.0 9.0 SSW 0.00 29.799
05/07/2005 10:30 a 56.9 56.9 56.9 57.6 56.3 47 36.9 2.0 5.0 SSW 0.00 29.796
05/07/2005 11:00 a 57.6 57.6 57.6 58.8 57.1 46 37.0 1.0 5.0 SSW 0.00 29.781
05/07/2005 11:30 a 60.4 60.4 60.4 62.2 58.6 42 37.2 1.0 5.0 SSE 0.00 29.781
05/07/2005 12:00 p 62.8 62.8 62.8 63.1 62.1 40 38.1 1.0 6.0 ESE 0.00 29.775
05/07/2005 12:30 p 63.1 63.1 63.1 64.1 62.2 40 38.4 1.0 5.0 SE 0.00 29.760
05/07/2005 1:00 p 64.4 64.4 64.4 65.5 63.7 36 36.9 1.0 7.0 ESE 0.00 29.756
05/07/2005 1:30 p 66.4 66.4 66.4 67.6 65.0 35 37.9 1.0 5.0 SSW 0.00 29.748
05/07/2005 2:00 p 67.2 67.2 67.2 68.7 66.0 33 37.2 1.0 6.0 ESE 0.00 29.741
05/07/2005 2:30 p 67.5 67.5 67.5 68.7 66.6 34 38.2 1.0 6.0 WSW 0.00 29.728
05/07/2005 3:00 p 66.6 66.6 66.6 67.9 65.9 35 38.1 1.0 4.0 WSW 0.00 29.711
05/07/2005 3:30 p 66.3 66.3 66.3 66.8 65.8 36 38.6 1.0 5.0 SSW 0.00 29.703
05/07/2005 4:00 p 66.7 66.7 66.7 67.4 66.2 36 38.9 1.0 7.0 WSW 0.00 29.692
05/07/2005 4:30 p 66.3 66.3 66.3 67.1 65.1 38 40.0 1.0 3.0 SW 0.00 29.685
05/07/2005 5:00 p 64.7 64.7 64.7 65.6 64.1 35 36.4 0.0 4.0 WSW 0.00 29.683
05/07/2005 5:30 p 65.4 65.4 65.4 66.3 65.0 36 37.8 0.0 3.0 S 0.00 29.688
05/07/2005 6:00 p 64.7 64.7 64.7 65.2 64.0 40 39.8 0.0 4.0 SSE 0.00 29.685
05/07/2005 6:30 p 63.5 63.5 63.5 64.0 63.2 40 38.8 0.0 3.0 WSW 0.00 29.683
05/07/2005 7:00 p 62.6 62.6 62.6 63.2 61.6 41 38.6 0.0 4.0 WSW 0.00 29.682
05/07/2005 7:30 p 60.5 60.5 60.5 61.6 59.1 46 39.6 0.0 3.0 SE 0.00 29.685
05/07/2005 8:00 p 57.7 57.7 57.7 59.1 56.4 51 39.7 0.0 0.0 --- 0.00 29.689
05/07/2005 8:30 p 55.3 55.3 55.3 56.4 54.5 65 43.8 0.0 0.0 --- 0.00 29.693
05/07/2005 9:00 p 53.3 53.3 53.3 54.5 52.2 66 42.2 0.0 0.0 --- 0.00 29.702
05/07/2005 9:30 p 51.9 51.9 51.9 52.8 50.3 69 42.1 0.0 0.0 --- 0.00 29.708
05/07/2005 10:00 p 49.6 49.6 49.6 50.3 49.4 73 41.3 0.0 0.0 --- 0.00 29.708
05/07/2005 10:30 p 50.0 50.0 50.0 51.3 49.4 65 38.7 0.0 0.0 --- 0.00 29.707
05/07/2005 11:00 p 52.4 52.4 52.4 52.8 51.3 67 41.8 0.0 0.0 --- 0.00 29.714
05/07/2005 11:30 p 53.2 53.2 53.2 53.9 52.3 53 36.5 0.0 0.0 --- 0.00 29.722
05/08/2005 12:00 a 53.4 53.4 53.4 54.0 52.6 65 41.9 0.0 1.0 --- 0.00 29.731
05/08/2005 12:30 a 52.7 52.7 52.7 53.1 52.0 55 37.0 0.0 2.0 NE 0.00 29.730
05/08/2005 1:00 a 51.9 51.9 51.9 52.4 51.7 53 35.3 0.0 3.0 SE 0.00 29.724
05/08/2005 1:30 a 52.3 52.3 52.3 52.7 52.0 55 36.6 0.0 3.0 ESE 0.00 29.713
05/08/2005 2:00 a 51.5 51.5 51.5 52.0 50.9 54 35.4 0.0 2.0 ESE 0.00 29.708
05/08/2005 2:30 a 51.5 51.5 51.5 51.9 50.8 56 36.3 0.0 0.0 --- 0.00 29.707
05/08/2005 3:00 a 50.1 50.1 50.1 50.8 49.2 62 37.6 0.0 0.0 --- 0.00 29.701
05/08/2005 3:30 a 48.9 48.9 48.9 49.2 48.8 63 36.9 0.0 0.0 --- 0.00 29.695
05/08/2005 4:00 a 48.1 48.1 48.1 48.9 47.2 73 39.9 0.0 0.0 --- 0.00 29.678
05/08/2005 4:30 a 47.2 47.2 47.2 47.4 47.0 73 39.0 0.0 0.0 --- 0.00 29.681
05/08/2005 5:00 a 46.1 46.1 46.1 47.0 45.1 77 39.3 0.0 0.0 --- 0.00 29.678
05/08/2005 5:30 a 44.3 44.3 44.3 45.1 43.9 80 38.5 0.0 0.0 --- 0.00 29.683
05/08/2005 6:00 a 43.0 43.0 43.0 43.9 42.2 83 38.2 0.0 0.0 --- 0.00 29.687
05/08/2005 6:30 a 41.9 41.9 41.9 42.2 41.7 86 38.0 0.0 0.0 --- 0.00 29.693
05/08/2005 7:00 a 42.0 42.0 42.0 42.8 41.7 87 38.4 0.0 0.0 --- 0.00 29.698
05/08/2005 7:30 a 45.6 45.6 45.6 48.6 42.8 70 36.4 0.0 0.0 --- 0.00 29.702
05/08/2005 8:00 a 49.7 49.7 49.7 51.4 48.6 60 36.4 0.0 2.0 ESE 0.00 29.705
05/08/2005 8:30 a 52.3 52.3 52.3 53.3 51.4 54 36.2 0.0 4.0 ESE 0.00 29.706
05/08/2005 9:00 a 54.2 54.2 54.2 54.9 53.3 51 36.5 0.0 3.0 SE 0.00 29.709
05/08/2005 9:30 a 55.3 55.3 55.3 55.6 54.9 49 36.5 0.0 4.0 SE 0.00 29.714
05/08/2005 10:00 a 56.6 56.6 56.6 57.9 55.5 47 36.6 1.0 4.0 SSE 0.00 29.709
05/08/2005 10:30 a 58.0 58.0 58.0 58.2 57.8 45 36.8 1.0 7.0 ESE 0.00 29.715
05/08/2005 11:00 a 58.9 58.9 58.9 59.5 58.2 44 37.0 1.0 6.0 ESE 0.00 29.716
05/08/2005 11:30 a 60.5 60.5 60.5 62.3 59.4 40 36.1 1.0 6.0 ESE 0.00 29.718
05/08/2005 12:00 p 61.1 61.1 61.1 62.2 60.7 42 37.9 1.0 7.0 ESE 0.00 29.723
05/08/2005 12:30 p 61.9 61.9 61.9 63.0 61.3 38 36.0 1.0 5.0 ESE 0.00 29.725
05/08/2005 1:00 p 63.1 63.1 63.1 63.9 62.5 39 37.8 1.0 7.0 ESE 0.00 29.725
05/08/2005 1:30 p 64.2 64.2 64.2 65.3 63.1 40 39.4 1.0 6.0 SE 0.00 29.724
05/08/2005 2:00 p 65.4 69.2 69.2 73.8 63.3 32 38.1 1.0 6.0 ESE 0.00 29.729
05/08/2005 2:30 p 67.4 70.8 70.8 73.4 69.1 32 39.5 1.0 6.0 SSE 0.00 29.718
05/08/2005 3:00 p 65.6 68.6 68.6 70.2 66.6 33 38.4 2.0 5.0 SE 0.00 29.713
05/08/2005 3:30 p 67.8 67.8 67.8 68.0 67.3 33 37.7 1.0 8.0 SE 0.00 29.709
05/08/2005 4:00 p 66.3 66.3 66.3 68.0 65.3 35 37.9 1.0 5.0 SSE 0.00 29.714
05/08/2005 4:30 p 67.0 67.0 67.0 67.8 66.2 37 39.9 1.0 4.0 ESE 0.00 29.714
05/08/2005 5:00 p 65.5 65.5 65.5 66.3 64.6 40 40.6 1.0 7.0 SW 0.00 29.724
05/08/2005 5:30 p 63.6 63.6 63.6 64.6 63.0 43 40.7 0.0 4.0 S 0.00 29.729
05/08/2005 6:00 p 63.8 63.8 63.8 64.1 63.4 41 39.7 0.0 4.0 SSE 0.00 29.740
05/08/2005 6:30 p 63.6 63.6 63.6 63.9 63.4 43 40.7 0.0 2.0 SSW 0.00 29.747
05/08/2005 7:00 p 63.1 63.1 63.1 63.6 62.1 46 42.0 0.0 2.0 SSE 0.00 29.761
05/08/2005 7:30 p 61.1 61.1 61.1 62.1 60.2 48 41.3 0.0 3.0 SSW 0.00 29.770
05/08/2005 8:00 p 59.2 59.2 59.2 60.2 58.3 51 41.1 0.0 2.0 SW 0.00 29.783
05/08/2005 8:30 p 57.9 57.9 57.9 58.3 57.7 53 40.9 0.0 1.0 --- 0.00 29.799
05/08/2005 9:00 p 57.2 57.2 57.2 57.8 56.2 56 41.7 0.0 0.0 --- 0.00 29.805
05/08/2005 9:30 p 56.0 56.0 56.0 56.2 55.7 56 40.5 0.0 0.0 --- 0.00 29.822
05/08/2005 10:00 p 55.7 55.7 55.7 56.1 55.0 58 41.2 0.0 0.0 --- 0.00 29.824
05/08/2005 10:30 p 54.5 54.5 54.5 55.0 54.0 62 41.8 0.0 3.0 S 0.00 29.829
05/08/2005 11:00 p 53.8 53.8 53.8 54.1 53.5 62 41.1 0.0 1.0 S 0.00 29.830
05/08/2005 11:30 p 53.6 53.6 53.6 53.9 53.4 63 41.3 0.0 0.0 --- 0.00 29.841
05/09/2005 12:00 a 54.1 54.1 54.1 54.2 53.8 65 42.6 0.0 0.0 --- 0.00 29.838
05/09/2005 12:30 a 53.0 53.0 53.0 53.9 51.4 71 43.9 0.0 0.0 --- 0.00 29.845
05/09/2005 1:00 a 50.6 50.6 50.6 51.4 50.2 74 42.6 0.0 0.0 --- 0.00 29.847
05/09/2005 1:30 a 50.6 50.6 50.6 51.0 50.4 73 42.3 0.0 0.0 --- 0.00 29.854
05/09/2005 2:00 a 51.5 51.5 51.5 51.7 51.0 74 43.5 0.0 0.0 --- 0.00 29.851
05/09/2005 2:30 a 51.1 51.1 51.1 51.8 50.7 68 40.9 0.0 1.0 S 0.00 29.855
05/09/2005 3:00 a 51.9 51.9 51.9 52.1 51.7 68 41.7 0.0 0.0 --- 0.00 29.851
05/09/2005 3:30 a 51.0 51.0 51.0 51.7 50.3 72 42.3 0.0 0.0 --- 0.00 29.858
05/09/2005 4:00 a 50.1 50.1 50.1 50.4 49.7 72 41.4 0.0 0.0 --- 0.00 29.858
05/09/2005 4:30 a 50.3 50.3 50.3 50.6 49.5 74 42.3 0.0 0.0 --- 0.00 29.859
05/09/2005 5:00 a 48.9 48.9 48.9 49.4 48.4 75 41.3 0.0 0.0 --- 0.00 29.861
05/09/2005 5:30 a 48.2 48.2 48.2 48.4 47.8 75 40.7 0.0 0.0 --- 0.00 29.868
05/09/2005 6:00 a 47.1 47.1 47.1 47.9 46.3 80 41.3 0.0 0.0 --- 0.00 29.872
05/09/2005 6:30 a 45.8 45.8 45.8 46.2 45.5 81 40.3 0.0 0.0 --- 0.00 29.884
05/09/2005 7:00 a 48.0 48.0 48.0 49.4 46.3 73 39.8 0.0 2.0 S 0.00 29.892
05/09/2005 7:30 a 51.8 51.8 51.8 53.1 49.4 66 40.8 0.0 1.0 S 0.00 29.900
05/09/2005 8:00 a 52.6 52.6 52.6 53.0 52.5 65 41.2 0.0 2.0 S 0.00 29.905
05/09/2005 8:30 a 53.9 53.9 53.9 55.2 53.0 61 40.8 0.0 3.0 SE 0.00 29.895
05/09/2005 9:00 a 57.5 57.5 57.5 60.2 55.3 52 40.0 0.0 5.0 ESE 0.00 29.893
05/09/2005 9:30 a 60.5 60.5 60.5 61.7 59.6 49 41.3 0.0 4.0 ESE 0.00 29.891
05/09/2005 10:00 a 61.0 61.0 61.0 61.7 60.5 54 44.3 0.0 4.0 ESE 0.00 29.889
05/09/2005 10:30 a 62.7 62.7 62.7 63.6 61.3 48 42.7 0.0 5.0 ESE 0.00 29.888
05/09/2005 11:00 a 62.7 62.7 62.7 63.3 62.4 48 42.7 0.0 4.0 ESE 0.00 29.889
05/09/2005 11:30 a 63.6 63.6 63.6 64.5 62.8 49 44.1 1.0 6.0 W 0.00 29.883
05/09/2005 12:00 p 65.5 65.5 65.5 66.5 64.6 46 44.2 0.0 4.0 E 0.00 29.882
05/09/2005 12:30 p 66.4 70.1 70.1 76.7 66.5 32 38.9 0.0 5.0 SSW 0.00 29.869
05/09/2005 1:00 p 78.0 79.7 79.7 82.2 76.7 27 42.8 1.0 3.0 NNW 0.00 29.857
05/09/2005 1:30 p 81.0 83.0 83.0 84.5 81.7 25 43.6 1.0 4.0 SE 0.00 29.856
05/09/2005 2:00 p 82.8 85.8 85.8 86.8 83.1 24 44.9 1.0 4.0 SW 0.00 29.848
05/09/2005 2:30 p 83.8 87.3 87.3 89.3 84.0 24 46.1 1.0 5.0 ESE 0.00 29.842
05/09/2005 3:00 p 75.0 77.0 77.0 83.8 74.7 33 45.7 1.0 6.0 ESE 0.00 29.830
05/09/2005 3:30 p 72.0 74.4 74.4 74.9 73.5 36 45.7 1.0 4.0 NW 0.00 29.829
05/09/2005 4:00 p 71.0 72.6 72.6 73.5 72.1 40 46.9 1.0 4.0 NNW 0.00 29.823
05/09/2005 4:30 p 70.2 71.5 71.5 72.1 70.9 42 47.2 1.0 4.0 NNW 0.00 29.829
05/09/2005 5:00 p 69.0 70.9 70.9 71.1 70.7 42 46.7 1.0 5.0 NW 0.00 29.833
05/09/2005 5:30 p 69.0 71.4 71.4 75.2 69.0 45 49.0 1.0 3.0 NW 0.00 29.835
05/09/2005 6:00 p 67.8 67.8 67.8 69.0 66.6 48 47.4 1.0 5.0 NNW 0.00 29.843
05/09/2005 6:30 p 65.8 65.8 65.8 66.6 65.2 50 46.7 1.0 4.0 NNW 0.00 29.845
05/09/2005 7:00 p 64.7 64.7 64.7 65.2 64.2 53 47.2 1.0 4.0 NNW 0.00 29.856
05/09/2005 7:30 p 63.5 63.5 63.5 64.2 62.5 58 48.5 0.0 2.0 NW 0.00 29.865
05/09/2005 8:00 p 61.5 61.5 61.5 62.5 60.3 63 48.8 0.0 3.0 NNW 0.00 29.875
05/09/2005 8:30 p 59.2 59.2 59.2 60.3 58.2 69 49.0 0.0 0.0 --- 0.00 29.886
05/09/2005 9:00 p 57.3 57.3 57.3 58.3 56.5 73 48.7 0.0 0.0 --- 0.00 29.895
05/09/2005 9:30 p 56.7 56.7 56.7 56.8 56.5 69 46.7 0.0 2.0 NNW 0.00 29.914
05/09/2005 10:00 p 56.0 56.0 56.0 56.6 55.5 71 46.7 0.0 0.0 --- 0.00 29.923
05/09/2005 10:30 p 55.0 55.0 55.0 55.5 54.7 70 45.4 0.0 3.0 NNW 0.00 29.931
05/09/2005 11:00 p 54.2 54.2 54.2 54.8 53.4 74 46.1 0.0 3.0 NNW 0.00 29.939
05/09/2005 11:30 p 52.7 52.7 52.7 53.4 52.1 77 45.7 0.0 1.0 NNW 0.00 29.944
05/10/2005 12:00 a 51.7 51.7 51.7 52.1 51.3 80 45.7 0.0 2.0 NNW 0.00 29.945
05/10/2005 12:30 a 51.0 51.0 51.0 51.3 50.7 82 45.7 0.0 0.0 --- 0.00 29.951
05/10/2005 1:00 a 50.4 50.4 50.4 50.8 50.1 83 45.4 0.0 1.0 NNW 0.00 29.946
05/10/2005 1:30 a 49.7 49.7 49.7 50.2 49.0 86 45.7 0.0 0.0 --- 0.00 29.946
05/10/2005 2:00 a 48.7 48.7 48.7 49.0 48.1 87 45.0 0.0 0.0 --- 0.00 29.954
05/10/2005 2:30 a 47.3 47.3 47.3 48.1 46.7 90 44.5 0.0 0.0 --- 0.00 29.957
05/10/2005 3:00 a 46.7 46.7 46.7 46.8 46.3 91 44.2 0.0 0.0 --- 0.00 29.961
05/10/2005 3:30 a 45.7 45.7 45.7 46.3 45.3 93 43.8 0.0 0.0 --- 0.00 29.965
05/10/2005 4:00 a 44.9 44.9 44.9 45.3 44.5 94 43.3 0.0 0.0 --- 0.00 29.961
05/10/2005 4:30 a 44.2 44.2 44.2 44.5 44.0 95 42.9 0.0 0.0 --- 0.00 29.957
05/10/2005 5:00 a 44.1 44.1 44.1 44.3 43.9 94 42.5 0.0 0.0 --- 0.00 29.962
05/10/2005 5:30 a 43.4 43.4 43.4 44.0 43.1 95 42.1 0.0 0.0 --- 0.00 29.968
05/10/2005 6:00 a 43.2 43.2 43.2 43.2 43.1 95 41.9 0.0 0.0 --- 0.00 29.975
05/10/2005 6:30 a 43.5 43.5 43.5 44.0 43.2 96 42.4 0.0 0.0 --- 0.00 29.978
05/10/2005 7:00 a 45.2 45.2 45.2 46.4 44.1 96 44.1 0.0 0.0 --- 0.00 29.985
05/10/2005 7:30 a 49.6 49.6 49.6 51.5 46.5 86 45.6 0.0 0.0 --- 0.00 29.990
05/10/2005 8:00 a 52.2 52.2 52.2 53.0 51.5 80 46.2 0.0 0.0 --- 0.00 29.990
05/10/2005 8:30 a 54.1 54.1 54.1 55.6 53.0 74 46.0 0.0 2.0 NW 0.00 29.995
05/10/2005 9:00 a 57.9 57.9 57.9 60.3 55.6 65 46.2 0.0 2.0 NW 0.00 29.988
05/10/2005 9:30 a 60.7 60.7 60.7 61.6 60.0 62 47.6 0.0 5.0 NNW 0.00 29.979
05/10/2005 10:00 a 61.6 61.6 61.6 62.0 61.3 64 49.3 0.0 4.0 NNW 0.00 29.978
05/10/2005 10:30 a 63.4 63.4 63.4 64.9 61.8 60 49.3 0.0 3.0 NNW 0.00 29.977
05/10/2005 11:00 a 64.4 64.4 64.4 64.7 64.1 59 49.8 0.0 3.0 N 0.00 29.976
05/10/2005 11:30 a 65.1 65.1 65.1 65.7 64.6 57 49.5 1.0 4.0 NNW 0.00 29.968
05/10/2005 12:00 p 66.6 66.6 66.6 67.1 65.6 56 50.4 1.0 3.0 NW 0.00 29.955
05/10/2005 12:30 p 70.0 72.0 72.0 76.9 67.1 40 46.4 1.0 4.0 NW 0.00 29.947
05/10/2005 1:00 p 79.0 79.8 79.8 81.3 76.9 35 49.7 1.0 5.0 NW 0.00 29.942
05/10/2005 1:30 p 81.4 82.7 82.7 84.8 79.6 32 49.9 0.0 3.0 NNW 0.00 29.934
05/10/2005 2:00 p 82.2 84.2 84.2 84.8 83.5 31 50.3 1.0 3.0 NW 0.00 29.929
05/10/2005 2:30 p 82.6 83.8 83.8 85.4 81.7 33 51.7 1.0 5.0 NNW 0.00 29.911
05/10/2005 3:00 p 74.0 74.1 74.1 81.6 71.3 51 54.8 2.0 5.0 NNW 0.00 29.900
05/10/2005 3:30 p 69.6 70.7 70.7 71.3 70.3 53 52.7 1.0 5.0 NNW 0.00 29.892
05/10/2005 4:00 p 69.4 70.8 70.8 71.6 70.4 52 52.3 1.0 5.0 NW 0.00 29.887
05/10/2005 4:30 p 68.6 69.7 69.7 70.5 69.3 53 51.8 1.0 5.0 NNW 0.00 29.890
05/10/2005 5:00 p 68.0 68.6 68.6 69.3 68.3 55 51.8 1.0 4.0 NNW 0.00 29.891
05/10/2005 5:30 p 67.2 68.1 68.1 70.4 66.5 56 51.8 1.0 4.0 NNW 0.00 29.885
05/10/2005 6:00 p 66.0 66.0 66.0 66.5 65.3 58 50.8 1.0 6.0 NW 0.00 29.879
05/10/2005 6:30 p 64.6 64.6 64.6 65.3 64.0 61 50.9 1.0 3.0 NNW 0.00 29.884
05/10/2005 7:00 p 63.4 63.4 63.4 64.0 62.8 63 50.6 1.0 3.0 NW 0.00 29.885
05/10/2005 7:30 p 62.0 62.0 62.0 62.8 61.1 66 50.5 0.0 3.0 NW 0.00 29.892
05/10/2005 8:00 p 60.2 60.2 60.2 61.1 59.4 69 50.0 0.0 4.0 NNW 0.00 29.896
05/10/2005 8:30 p 58.5 58.5 58.5 59.4 57.8 72 49.5 0.0 2.0 NNW 0.00 29.901
05/10/2005 9:00 p 57.3 57.3 57.3 57.8 56.8 74 49.1 0.0 2.0 NNW 0.00 29.908
05/10/2005 9:30 p 56.2 56.2 56.2 56.8 55.5 76 48.7 0.0 2.0 NNW 0.00 29.914
05/10/2005 10:00 p 55.0 55.0 55.0 55.5 54.5 79 48.6 0.0 1.0 NNW 0.00 29.917
05/10/2005 10:30 p 53.8 53.8 53.8 54.5 52.9 82 48.4 0.0 0.0 --- 0.00 29.918
05/10/2005 11:00 p 52.3 52.3 52.3 52.9 51.7 86 48.2 0.0 0.0 --- 0.00 29.915
05/10/2005 11:30 p 51.2 51.2 51.2 51.7 50.8 88 47.8 0.0 0.0 --- 0.00 29.914
05/11/2005 12:00 a 50.6 50.6 50.6 50.8 50.4 89 47.5 0.0 0.0 --- 0.00 29.913
05/11/2005 12:30 a 49.9 49.9 49.9 50.4 49.4 91 47.4 0.0 0.0 --- 0.00 29.910
05/11/2005 1:00 a 49.2 49.2 49.2 49.4 48.9 93 47.3 0.0 0.0 --- 0.00 29.905
05/11/2005 1:30 a 48.7 48.7 48.7 48.9 48.4 94 47.1 0.0 0.0 --- 0.00 29.897
05/11/2005 2:00 a 48.3 48.3 48.3 48.4 48.2 94 46.7 0.0 0.0 --- 0.00 29.890
05/11/2005 2:30 a 48.3 48.3 48.3 48.6 48.2 94 46.7 0.0 0.0 --- 0.00 29.898
05/11/2005 3:00 a 47.7 47.7 47.7 48.3 47.4 95 46.3 0.0 0.0 --- 0.00 29.898
05/11/2005 3:30 a 47.4 47.4 47.4 47.7 47.1 95 46.0 0.0 0.0 --- 0.00 29.897
05/11/2005 4:00 a 47.0 47.0 47.0 47.2 46.9 96 45.9 0.0 0.0 --- 0.00 29.897
05/11/2005 4:30 a 47.0 47.0 47.0 47.2 46.7 96 45.9 0.0 0.0 --- 0.00 29.895
05/11/2005 5:00 a 46.8 46.8 46.8 47.5 46.7 97 46.0 0.0 0.0 --- 0.00 29.893
05/11/2005 5:30 a 48.3 48.3 48.3 48.8 47.5 96 47.2 0.0 0.0 --- 0.00 29.894
05/11/2005 6:00 a 49.1 49.1 49.1 49.4 48.8 95 47.7 0.0 0.0 --- 0.00 29.898
05/11/2005 6:30 a 49.7 49.7 49.7 50.1 49.4 93 47.8 0.0 0.0 --- 0.00 29.895
05/11/2005 7:00 a 50.4 50.4 50.4 50.9 50.0 91 47.9 0.0 0.0 --- 0.00 29.895
05/11/2005 7:30 a 51.5 51.5 51.5 52.1 50.9 88 48.1 0.0 0.0 --- 0.00 29.890
05/11/2005 8:00 a 52.8 52.8 52.8 53.5 52.1 84 48.1 0.0 1.0 NNW 0.00 29.892
05/11/2005 8:30 a 54.0 54.0 54.0 54.4 53.5 83 49.0 0.0 2.0 NNW 0.00 29.891
05/11/2005 9:00 a 55.0 55.0 55.0 55.9 54.4 80 49.0 0.0 0.0 --- 0.00 29.882
05/11/2005 9:30 a 57.0 57.0 57.0 58.3 55.9 75 49.2 0.0 3.0 NNW 0.00 29.878
05/11/2005 10:00 a 59.6 59.6 59.6 60.1 58.3 73 50.9 0.0 2.0 E 0.00 29.880
05/11/2005 10:30 a 61.2 61.2 61.2 62.5 60.1 69 51.0 0.0 3.0 E 0.00 29.881
05/11/2005 11:00 a 63.3 63.3 63.3 64.1 62.5 67 52.2 0.0 3.0 NNE 0.00 29.871
05/11/2005 11:30 a 65.4 65.4 65.4 66.8 64.1 63 52.5 0.0 2.0 NNW 0.00 29.860
05/11/2005 12:00 p 68.6 68.7 68.7 70.6 66.7 58 53.3 0.0 3.0 WNW 0.00 29.854
05/11/2005 12:30 p 74.0 76.3 76.3 83.3 70.6 40 50.2 0.0 3.0 SE 0.00 29.837
05/11/2005 1:00 p 84.2 84.8 84.8 87.0 83.4 36 54.9 0.0 4.0 NW 0.00 29.821
05/11/2005 1:30 p 86.6 88.1 88.1 89.8 87.0 33 55.4 0.0 3.0 WNW 0.00 29.809
05/11/2005 2:00 p 91.6 92.2 92.2 93.1 89.9 29 55.4 0.0 3.0 NNW 0.00 29.802
05/11/2005 2:30 p 93.6 94.2 94.2 94.9 93.2 29 57.1 0.0 3.0 NW 0.00 29.780
05/11/2005 3:00 p 86.6 86.0 86.0 93.4 83.2 43 60.9 0.0 3.0 NW 0.00 29.767
05/11/2005 3:30 p 84.8 83.6 83.6 83.8 83.3 44 59.4 0.0 2.0 WNW 0.00 29.755
05/11/2005 4:00 p 84.4 83.0 83.0 83.7 82.3 47 60.7 0.0 3.0 WNW 0.00 29.743
05/11/2005 4:30 p 82.7 82.4 82.4 82.7 82.0 47 60.2 0.0 4.0 NNW 0.00 29.738
05/11/2005 5:00 p 82.7 82.4 82.4 83.4 82.2 47 60.2 0.0 2.0 NW 0.00 29.737
05/11/2005 5:30 p 84.6 82.5 82.5 84.2 81.1 48 60.9 0.0 2.0 NW 0.00 29.733
05/11/2005 6:00 p 81.2 80.5 80.5 81.1 79.4 51 60.7 0.0 1.0 --- 0.00 29.733
05/11/2005 6:30 p 78.6 78.1 78.1 79.4 77.0 56 61.1 0.0 1.0 NW 0.00 29.734
05/11/2005 7:00 p 77.0 76.5 76.5 77.0 76.0 58 60.6 0.0 0.0 --- 0.00 29.737
05/11/2005 7:30 p 75.0 75.3 75.3 76.0 74.6 60 60.5 0.0 1.0 --- 0.00 29.741
05/11/2005 8:00 p 75.0 73.6 73.6 74.5 72.5 65 61.1 0.0 0.0 --- 0.00 29.749
05/11/2005 8:30 p 72.0 71.7 71.7 72.5 70.8 69 61.0 0.0 0.0 --- 0.00 29.749
05/11/2005 9:00 p 70.6 70.1 70.1 70.8 69.6 73 61.1 0.0 0.0 --- 0.00 29.768
05/11/2005 9:30 p 70.4 68.7 68.7 69.6 68.0 77 61.2 0.0 0.0 --- 0.00 29.765
05/11/2005 10:00 p 67.7 67.7 67.7 68.0 67.2 78 60.6 0.0 0.0 --- 0.00 29.763
05/11/2005 10:30 p 67.2 67.2 67.2 67.8 67.0 78 60.1 0.0 0.0 --- 0.00 29.762
05/11/2005 11:00 p 67.5 67.5 67.5 68.0 66.4 81 61.5 0.0 0.0 --- 0.00 29.768
05/11/2005 11:30 p 66.5 66.5 66.5 67.2 66.0 80 60.1 0.0 0.0 --- 0.00 29.784
05/12/2005 12:00 a 66.3 66.3 66.3 67.2 65.3 85 61.7 0.0 0.0 --- 0.00 29.787
05/12/2005 12:30 a 65.4 65.4 65.4 65.5 65.0 84 60.4 0.0 0.0 --- 0.00 29.782
05/12/2005 1:00 a 63.8 63.8 63.8 65.0 62.7 89 60.5 0.0 0.0 --- 0.00 29.787
05/12/2005 1:30 a 62.1 62.1 62.1 62.7 61.5 91 59.4 0.0 0.0 --- 0.00 29.787
05/12/2005 2:00 a 61.0 61.0 61.0 61.5 60.5 94 59.3 0.0 0.0 --- 0.00 29.794
05/12/2005 2:30 a 60.1 60.1 60.1 60.5 59.7 95 58.7 0.0 0.0 --- 0.00 29.793
05/12/2005 3:00 a 60.0 60.0 60.0 60.2 59.7 94 58.3 0.0 0.0 --- 0.00 29.800
05/12/2005 3:30 a 60.7 60.7 60.7 61.5 60.0 90 57.8 0.0 0.0 --- 0.00 29.807
05/12/2005 4:00 a 62.4 62.4 62.4 65.3 61.5 75 54.4 0.0 6.0 E 0.00 29.823
05/12/2005 4:30 a 66.0 66.0 66.0 66.7 65.0 85 61.4 0.0 2.0 E 0.00 29.816
05/12/2005 5:00 a 64.0 64.0 64.0 65.0 63.3 79 57.4 0.0 4.0 NE 0.00 29.837
05/12/2005 5:30 a 65.7 65.7 65.7 66.0 65.0 72 56.4 0.0 4.0 ESE 0.00 29.847
05/12/2005 6:00 a 65.9 65.9 65.9 66.1 65.5 70 55.9 0.0 4.0 ESE 0.00 29.866
05/12/2005 6:30 a 65.8 65.8 65.8 66.1 65.6 66 54.1 0.0 8.0 ESE 0.00 29.881
05/12/2005 7:00 a 65.5 65.5 65.5 65.6 65.2 64 53.0 0.0 4.0 ESE 0.00 29.900
05/12/2005 7:30 a 64.6 64.6 64.6 65.2 64.2 63 51.7 0.0 4.0 ESE 0.00 29.910
05/12/2005 8:00 a 64.2 64.2 64.2 64.3 63.9 65 52.2 0.0 7.0 E 0.00 29.918
05/12/2005 8:30 a 62.9 62.9 62.9 63.9 62.1 66 51.4 1.0 5.0 ESE 0.00 29.935
05/12/2005 9:00 a 61.4 61.4 61.4 62.1 61.1 65 49.5 1.0 4.0 ESE 0.00 29.958
05/12/2005 9:30 a 62.3 62.3 62.3 63.9 61.5 57 46.9 1.0 4.0 ESE 0.00 29.964
05/12/2005 10:00 a 64.7 64.7 64.7 65.7 63.9 52 46.7 1.0 8.0 ESE 0.00 29.976
05/12/2005 10:30 a 66.2 66.2 66.2 66.9 65.7 49 46.5 1.0 5.0 ESE 0.00 29.983
05/12/2005 11:00 a 66.8 66.8 66.8 67.3 66.6 47 45.9 1.0 4.0 ESE 0.00 29.982
05/12/2005 11:30 a 66.0 68.0 68.0 68.6 67.3 40 42.8 1.0 6.0 ESE 0.00 29.991
05/12/2005 12:00 p 66.2 69.4 69.4 70.5 68.6 36 41.3 1.0 8.0 ESE 0.00 29.995
05/12/2005 12:30 p 73.6 75.9 75.9 79.3 70.6 26 38.6 1.0 6.0 ESE 0.00 30.004
05/12/2005 1:00 p 77.0 79.0 79.0 81.1 77.1 21 35.8 1.0 6.0 ESE 0.00 30.009
05/12/2005 1:30 p 80.0 82.4 82.4 83.9 80.4 20 37.3 1.0 6.0 ESE 0.00 30.017
05/12/2005 2:00 p 81.0 84.8 84.8 87.1 82.1 17 35.2 1.0 5.0 ESE 0.00 30.026
05/12/2005 2:30 p 81.0 84.6 84.6 87.0 82.3 17 35.0 1.0 4.0 ESE 0.00 30.025
05/12/2005 3:00 p 76.0 77.9 77.9 87.1 73.9 23 37.2 1.0 5.0 ESE 0.00 30.026
05/12/2005 3:30 p 70.8 73.8 73.8 74.1 73.6 24 34.8 1.0 4.0 SE 0.00 30.029
05/12/2005 4:00 p 69.2 73.4 73.4 74.3 72.8 21 31.1 1.0 7.0 ESE 0.00 30.030
05/12/2005 4:30 p 69.2 72.6 72.6 73.1 72.1 21 30.5 1.0 6.0 ESE 0.00 30.038
05/12/2005 5:00 p 68.3 71.8 71.8 73.4 71.4 23 32.0 0.0 4.0 ESE 0.00 30.043
05/12/2005 5:30 p 69.2 72.9 72.9 76.4 70.1 21 30.7 0.0 3.0 SE 0.00 30.044
05/12/2005 6:00 p 65.0 69.2 69.2 70.1 68.1 30 36.5 0.0 4.0 ESE 0.00 30.053
05/12/2005 6:30 p 66.8 66.8 66.8 68.1 65.6 34 37.6 0.0 3.0 NW 0.00 30.064
05/12/2005 7:00 p 64.5 64.5 64.5 65.6 63.5 35 36.3 0.0 3.0 NW 0.00 30.078
05/12/2005 7:30 p 62.7 62.7 62.7 63.5 61.9 37 36.1 0.0 3.0 WSW 0.00 30.093
05/12/2005 8:00 p 60.7 60.7 60.7 61.9 59.4 39 35.6 0.0 1.0 --- 0.00 30.104
05/12/2005 8:30 p 58.2 58.2 58.2 59.4 56.9 45 37.0 0.0 0.0 --- 0.00 30.123
05/12/2005 9:00 p 56.5 56.5 56.5 56.9 56.2 39 31.9 0.0 0.0 --- 0.00 30.138
05/12/2005 9:30 p 56.3 56.3 56.3 56.8 55.6 40 32.3 0.0 2.0 ENE 0.00 30.155
05/12/2005 10:00 p 55.4 55.4 55.4 55.6 54.9 41 32.1 0.0 0.0 --- 0.00 30.169
05/12/2005 10:30 p 54.4 54.4 54.4 54.9 53.8 44 33.0 0.0 0.0 --- 0.00 30.177
05/12/2005 11:00 p 52.6 52.6 52.6 53.8 52.1 46 32.4 0.0 0.0 --- 0.00 30.185
05/12/2005 11:30 p 51.6 51.6 51.6 52.2 51.0 54 35.5 0.0 0.0 --- 0.00 30.192
05/13/2005 12:00 a 49.6 49.6 49.6 51.0 48.4 58 35.4 0.0 0.0 --- 0.00 30.195
05/13/2005 12:30 a 47.5 47.5 47.5 48.4 46.4 62 35.1 0.0 0.0 --- 0.00 30.197
05/13/2005 1:00 a 45.5 45.5 45.5 46.4 45.1 62 33.3 0.0 0.0 --- 0.00 30.202
05/13/2005 1:30 a 44.6 44.6 44.6 45.1 44.1 67 34.3 0.0 0.0 --- 0.00 30.210
05/13/2005 2:00 a 43.6 43.6 43.6 44.1 43.4 66 33.0 0.0 0.0 --- 0.00 30.210
05/13/2005 2:30 a 45.0 45.0 45.0 45.5 43.7 56 30.3 0.0 0.0 --- 0.00 30.212
05/13/2005 3:00 a 44.8 44.8 44.8 45.5 44.5 56 30.1 0.0 0.0 --- 0.00 30.220
05/13/2005 3:30 a 44.6 44.6 44.6 44.7 44.4 52 28.1 0.0 0.0 --- 0.00 30.230
05/13/2005 4:00 a 44.2 44.2 44.2 44.7 43.8 53 28.2 0.0 0.0 --- 0.00 30.249
05/13/2005 4:30 a 43.6 43.6 43.6 43.9 43.3 54 28.1 0.0 0.0 --- 0.00 30.261
05/13/2005 5:00 a 42.8 42.8 42.8 43.3 42.5 52 26.4 0.0 0.0 --- 0.00 30.276
05/13/2005 5:30 a 42.1 42.1 42.1 42.5 41.6 53 26.2 0.0 0.0 --- 0.00 30.284
05/13/2005 6:00 a 41.6 41.6 41.6 41.7 41.5 52 25.3 0.0 0.0 --- 0.00 30.293
05/13/2005 6:30 a 41.8 41.8 41.8 42.0 41.6 52 25.5 0.0 0.0 --- 0.00 30.296
05/13/2005 7:00 a 42.8 42.8 42.8 43.7 42.0 49 25.0 0.0 0.0 --- 0.00 30.300
05/13/2005 7:30 a 46.1 46.1 46.1 47.6 43.7 42 24.3 0.0 2.0 ENE 0.00 30.294
05/13/2005 8:00 a 47.4 47.4 47.4 47.8 47.1 42 25.5 0.0 2.0 E 0.00 30.299
05/13/2005 8:30 a 48.7 48.7 48.7 50.1 47.8 37 23.6 0.0 2.0 NNW 0.00 30.303
05/13/2005 9:00 a 52.4 52.4 52.4 54.1 50.1 28 20.3 0.0 2.0 WNW 0.00 30.302
05/13/2005 9:30 a 54.7 54.7 54.7 55.7 54.0 30 23.9 0.0 3.0 WNW 0.00 30.288
05/13/2005 10:00 a 55.3 55.3 55.3 55.5 55.0 27 21.9 0.0 3.0 ESE 0.00 30.287
05/13/2005 10:30 a 56.3 56.3 56.3 57.6 55.4 27 22.8 0.0 3.0 NNW 0.00 30.279
05/13/2005 11:00 a 57.0 57.0 57.0 57.4 56.4 27 23.4 0.0 3.0 WNW 0.00 30.270
05/13/2005 11:30 a 57.0 57.0 57.0 57.8 56.5 29 25.1 1.0 3.0 N 0.00 30.257
05/13/2005 12:00 p 58.8 58.8 58.8 60.6 57.8 24 22.1 0.0 2.0 NW 0.00 30.239
05/13/2005 12:30 p 64.7 69.1 69.1 75.8 60.7 17 22.5 0.0 3.0 ESE 0.00 30.224
05/13/2005 1:00 p 74.0 76.6 76.6 78.8 74.3 15 25.5 0.0 3.0 ESE 0.00 30.189
05/13/2005 1:30 p 76.0 79.4 79.4 81.5 76.7 15 27.8 0.0 3.0 SE 0.00 30.178
05/13/2005 2:00 p 78.0 80.8 80.8 81.9 79.5 15 28.9 0.0 3.0 ESE 0.00 30.168
05/13/2005 2:30 p 78.2 81.0 81.0 82.5 78.8 16 30.6 0.0 3.0 NW 0.00 30.155
05/13/2005 3:00 p 69.2 72.8 72.8 80.0 68.7 21 30.6 0.0 4.0 NW 0.00 30.140
05/13/2005 3:30 p 63.4 68.3 68.3 68.7 68.1 24 30.1 0.0 3.0 ENE 0.00 30.118
05/13/2005 4:00 p 67.8 67.8 67.8 68.2 67.5 26 31.7 0.0 3.0 ESE 0.00 30.105
05/13/2005 4:30 p 67.9 67.9 67.9 68.3 67.6 26 31.8 0.0 2.0 N 0.00 30.094
05/13/2005 5:00 p 67.5 67.5 67.5 70.5 66.8 23 28.4 0.0 4.0 ESE 0.00 30.088
05/13/2005 5:30 p 66.0 70.0 70.0 75.8 65.9 26 33.6 0.0 3.0 ESE 0.00 30.069
05/13/2005 6:00 p 65.1 65.1 65.1 65.9 64.4 27 30.3 0.0 2.0 N 0.00 30.062
05/13/2005 6:30 p 63.8 63.8 63.8 64.4 63.1 31 32.6 0.0 3.0 N 0.00 30.044
05/13/2005 7:00 p 61.5 61.5 61.5 63.1 59.7 40 37.0 1.0 5.0 N 0.00 30.052
05/13/2005 7:30 p 58.7 58.7 58.7 59.7 57.9 45 37.4 0.0 3.0 NNW 0.00 30.047
05/13/2005 8:00 p 57.0 57.0 57.0 57.9 56.1 48 37.5 0.0 4.0 NNW 0.00 30.056
05/13/2005 8:30 p 55.2 55.2 55.2 56.1 54.5 55 39.3 0.0 1.0 NNW 0.00 30.059
05/13/2005 9:00 p 54.0 54.0 54.0 54.6 53.4 56 38.7 0.0 1.0 NNW 0.00 30.053
05/13/2005 9:30 p 53.0 53.0 53.0 53.4 52.7 59 39.1 0.0 0.0 --- 0.00 30.050
05/13/2005 10:00 p 52.4 52.4 52.4 52.7 51.9 60 38.9 0.0 0.0 --- 0.00 30.053
05/13/2005 10:30 p 51.7 51.7 51.7 52.4 51.4 59 37.9 0.0 1.0 NNW 0.00 30.042
05/13/2005 11:00 p 52.7 52.7 52.7 52.8 52.4 58 38.4 0.0 2.0 NW 0.00 30.031
05/13/2005 11:30 p 52.8 52.8 52.8 52.9 52.6 61 39.7 0.0 0.0 --- 0.00 30.022
05/14/2005 12:00 a 52.7 52.7 52.7 53.3 52.4 63 40.5 0.0 0.0 --- 0.00 30.025
05/14/2005 12:30 a 54.3 54.3 54.3 54.8 53.3 62 41.6 0.0 0.0 --- 0.00 30.012
05/14/2005 1:00 a 55.0 55.0 55.0 55.3 54.8 63 42.7 0.0 1.0 NW 0.00 30.002
05/14/2005 1:30 a 55.4 55.4 55.4 55.4 55.3 62 42.6 0.0 0.0 --- 0.00 29.979
05/14/2005 2:00 a 55.3 55.3 55.3 55.4 55.2 63 42.9 0.0 0.0 --- 0.00 29.964
05/14/2005 2:30 a 55.1 55.1 55.1 55.2 55.0 63 42.7 0.0 1.0 NW 0.00 29.949
05/14/2005 3:00 a 54.9 54.9 54.9 55.0 54.8 63 42.6 0.0 1.0 NW 0.00 29.938
05/14/2005 3:30 a 54.8 54.8 54.8 54.8 54.7 64 42.9 0.0 0.0 --- 0.00 29.922
05/14/2005 4:00 a 54.8 54.8 54.8 54.9 54.8 64 42.9 0.0 0.0 --- 0.00 29.915
05/14/2005 4:30 a 54.8 54.8 54.8 54.9 54.6 64 42.9 0.0 0.0 --- 0.00 29.899
05/14/2005 5:00 a 53.4 53.4 53.4 54.6 52.3 68 43.1 0.0 0.0 --- 0.00 29.886
05/14/2005 5:30 a 52.3 52.3 52.3 52.5 52.1 69 42.4 0.0 0.0 --- 0.00 29.895
05/14/2005 6:00 a 52.0 52.0 52.0 52.5 51.8 70 42.5 0.0 0.0 --- 0.00 29.898
05/14/2005 6:30 a 53.2 53.2 53.2 54.1 52.0 65 41.8 0.0 0.0 --- 0.00 29.907
05/14/2005 7:00 a 54.3 54.3 54.3 54.5 54.0 67 43.6 0.0 0.0 --- 0.00 29.901
05/14/2005 7:30 a 54.5 54.5 54.5 54.8 54.3 67 43.8 0.0 0.0 --- 0.00 29.889
05/14/2005 8:00 a 56.1 56.1 56.1 57.5 54.8 64 44.1 0.0 1.0 --- 0.00 29.870
05/14/2005 8:30 a 57.6 57.6 57.6 58.5 57.0 65 45.9 0.0 1.0 NW 0.00 29.870
05/14/2005 9:00 a 60.9 60.9 60.9 63.0 58.5 58 46.0 0.0 2.0 NW 0.00 29.861
05/14/2005 9:30 a 63.2 63.2 63.2 63.5 62.8 60 49.1 0.0 2.0 NW 0.00 29.846
05/14/2005 10:00 a 64.7 64.7 64.7 66.1 63.4 56 48.7 0.0 2.0 NW 0.00 29.829
05/14/2005 10:30 a 66.1 66.1 66.1 67.2 65.5 57 50.4 0.0 3.0 NW 0.00 29.830
05/14/2005 11:00 a 67.6 67.6 67.6 68.1 67.2 59 52.8 0.0 2.0 WNW 0.00 29.818
05/14/2005 11:30 a 67.8 69.0 69.0 70.2 68.1 54 51.7 0.0 2.0 NW 0.00 29.799
05/14/2005 12:00 p 69.0 71.3 71.3 73.4 70.1 50 51.7 0.0 3.0 N 0.00 29.789
05/14/2005 12:30 p 78.6 79.1 79.1 82.0 73.4 38 51.3 0.0 5.0 WNW 0.00 29.774
05/14/2005 1:00 p 83.4 84.5 84.5 87.4 81.3 32 51.4 0.0 3.0 NW 0.00 29.765
05/14/2005 1:30 p 86.6 88.7 88.7 90.2 87.5 28 51.4 0.0 3.0 NNW 0.00 29.746
05/14/2005 2:00 p 89.0 89.6 89.6 91.8 88.1 30 54.1 1.0 4.0 NNW 0.00 29.729
05/14/2005 2:30 p 90.6 90.6 90.6 91.7 88.8 29 54.0 0.0 4.0 WNW 0.00 29.710
05/14/2005 3:00 p 86.4 85.8 85.8 91.9 81.4 42 60.1 0.0 4.0 WNW 0.00 29.699
05/14/2005 3:30 p 81.0 81.2 81.2 81.8 80.9 44 57.2 0.0 3.0 NNW 0.00 29.688
05/14/2005 4:00 p 81.0 80.9 80.9 81.8 80.1 47 58.8 0.0 4.0 NW 0.00 29.679
05/14/2005 4:30 p 81.0 80.8 80.8 81.1 80.5 45 57.5 0.0 2.0 NW 0.00 29.674
05/14/2005 5:00 p 81.0 80.5 80.5 82.8 80.0 45 57.2 0.0 4.0 NW 0.00 29.660
05/14/2005 5:30 p 83.0 82.1 82.1 85.8 79.1 50 61.6 0.0 3.0 NW 0.00 29.649
05/14/2005 6:00 p 79.4 78.5 78.5 79.1 77.9 52 59.4 0.0 1.0 ESE 0.00 29.643
05/14/2005 6:30 p 77.0 77.4 77.4 77.9 76.9 55 60.0 0.0 2.0 ESE 0.00 29.640
05/14/2005 7:00 p 76.0 75.6 75.6 76.9 74.1 58 59.8 0.0 3.0 NW 0.00 29.639
05/14/2005 7:30 p 73.0 73.2 73.2 74.1 72.6 60 58.5 0.0 1.0 NW 0.00 29.640
05/14/2005 8:00 p 71.0 71.3 71.3 72.6 69.9 65 58.9 0.0 0.0 --- 0.00 29.644
05/14/2005 8:30 p 69.0 68.7 68.7 69.9 67.5 70 58.5 0.0 2.0 NW 0.00 29.644
05/14/2005 9:00 p 66.4 66.4 66.4 67.4 65.4 76 58.6 0.0 0.0 --- 0.00 29.642
05/14/2005 9:30 p 65.1 65.1 65.1 65.5 64.9 77 57.7 0.0 0.0 --- 0.00 29.655
05/14/2005 10:00 p 64.9 64.9 64.9 65.1 64.7 77 57.5 0.0 0.0 --- 0.00 29.652
05/14/2005 10:30 p 65.0 65.0 65.0 65.1 64.7 80 58.7 0.0 0.0 --- 0.00 29.650
05/14/2005 11:00 p 65.2 65.2 65.2 65.3 64.8 79 58.5 0.0 0.0 --- 0.00 29.644
05/14/2005 11:30 p 65.1 65.1 65.1 65.2 65.0 79 58.4 0.0 0.0 --- 0.00 29.644
05/15/2005 12:00 a 64.4 64.4 64.4 65.2 63.8 80 58.1 0.0 0.0 --- 0.00 29.643
05/15/2005 12:30 a 64.2 64.2 64.2 64.5 63.8 80 57.9 0.0 0.0 --- 0.00 29.637
05/15/2005 1:00 a 64.1 64.1 64.1 64.1 64.0 81 58.2 0.0 0.0 --- 0.00 29.622
05/15/2005 1:30 a 63.9 63.9 63.9 64.1 63.5 83 58.6 0.0 0.0 --- 0.00 29.615
05/15/2005 2:00 a 63.0 63.0 63.0 63.5 62.5 85 58.4 0.0 0.0 --- 0.00 29.609
05/15/2005 2:30 a 61.9 61.9 61.9 62.5 61.5 87 58.0 0.0 0.0 --- 0.00 29.607
05/15/2005 3:00 a 61.5 61.5 61.5 61.9 61.3 87 57.6 0.0 0.0 --- 0.00 29.602
05/15/2005 3:30 a 61.6 61.6 61.6 62.0 61.2 89 58.3 0.0 0.0 --- 0.00 29.597
05/15/2005 4:00 a 61.2 61.2 61.2 61.4 60.7 90 58.2 0.0 0.0 --- 0.00 29.590
05/15/2005 4:30 a 60.1 60.1 60.1 60.7 59.7 93 58.1 0.0 0.0 --- 0.00 29.588
05/15/2005 5:00 a 59.3 59.3 59.3 59.7 59.0 95 57.9 0.0 0.0 --- 0.00 29.597
05/15/2005 5:30 a 59.0 59.0 59.0 59.2 58.9 95 57.6 0.0 0.0 --- 0.00 29.598
05/15/2005 6:00 a 59.2 59.2 59.2 59.3 59.0 94 57.5 0.0 0.0 --- 0.00 29.617
05/15/2005 6:30 a 59.4 59.4 59.4 60.6 59.0 94 57.7 0.0 0.0 --- 0.00 29.620
05/15/2005 7:00 a 61.7 61.7 61.7 62.8 60.6 91 59.1 0.0 0.0 --- 0.00 29.620
05/15/2005 7:30 a 64.1 64.1 64.1 65.1 62.9 88 60.5 0.0 0.0 --- 0.00 29.622
05/15/2005 8:00 a 66.3 66.3 66.3 68.4 65.2 81 60.3 0.0 0.0 --- 0.00 29.627
05/15/2005 8:30 a 70.6 69.1 69.1 69.4 68.4 78 62.0 0.0 0.0 --- 0.00 29.632
05/15/2005 9:00 a 70.2 69.1 69.1 69.9 68.9 76 61.2 0.0 0.0 --- 0.00 29.637
05/15/2005 9:30 a 71.0 70.1 70.1 70.4 69.9 75 61.8 0.0 0.0 --- 0.00 29.632
05/15/2005 10:00 a 72.0 71.8 71.8 73.3 70.5 68 60.7 0.0 1.0 N 0.00 29.634
05/15/2005 10:30 a 74.8 73.6 73.6 74.8 73.0 64 60.7 0.0 1.0 N 0.00 29.643
05/15/2005 11:00 a 75.4 75.0 75.0 75.4 74.5 62 61.1 0.0 3.0 ESE 0.00 29.641
05/15/2005 11:30 a 76.2 75.6 75.6 76.1 74.6 61 61.2 0.0 3.0 ESE 0.00 29.647
05/15/2005 12:00 p 77.0 76.8 76.8 78.0 75.7 57 60.4 0.0 3.0 E 0.00 29.650
05/15/2005 12:30 p 76.8 77.3 77.3 81.5 75.8 49 56.7 0.0 3.0 N 0.00 29.642
05/15/2005 1:00 p 84.6 84.5 84.5 88.9 80.8 38 56.1 0.0 3.0 ENE 0.00 29.635
05/15/2005 1:30 p 87.0 86.7 86.7 88.0 83.8 40 59.5 0.0 3.0 ESE 0.00 29.629
05/15/2005 2:00 p 82.0 78.6 78.6 83.7 73.1 75 70.0 0.0 2.0 NNW 0.00 29.630
05/15/2005 2:30 p 74.0 71.6 71.6 74.1 70.4 84 66.5 0.0 1.0 N 0.00 29.627
05/15/2005 3:00 p 79.9 77.7 77.7 79.5 74.1 69 66.7 0.0 2.0 N 0.00 29.623
05/15/2005 3:30 p 79.8 79.0 79.0 79.5 78.5 54 61.0 0.0 1.0 N 0.00 29.620
05/15/2005 4:00 p 80.0 79.5 79.5 79.9 78.8 46 56.9 0.0 3.0 NNE 0.00 29.612
05/15/2005 4:30 p 77.7 78.4 78.4 79.0 78.0 47 56.5 0.0 2.0 NNW 0.00 29.616
05/15/2005 5:00 p 78.1 78.2 78.2 78.6 77.7 51 58.6 0.0 2.0 W 0.00 29.613
05/15/2005 5:30 p 77.8 77.9 77.9 79.7 76.5 48 56.7 0.0 2.0 W 0.00 29.609
05/15/2005 6:00 p 75.0 75.8 75.8 76.5 74.8 45 53.0 0.0 1.0 W 0.00 29.617
05/15/2005 6:30 p 72.4 71.6 71.6 74.8 68.7 72 62.1 0.0 1.0 --- 0.00 29.621
05/15/2005 7:00 p 67.4 69.4 69.4 70.0 68.7 52 51.0 0.0 0.0 --- 0.00 29.625
05/15/2005 7:30 p 68.0 69.6 69.6 69.9 69.1 48 49.1 0.0 0.0 --- 0.00 29.629
05/15/2005 8:00 p 66.0 68.2 68.2 69.1 67.4 50 48.9 0.0 0.0 --- 0.00 29.635
05/15/2005 8:30 p 66.7 66.7 66.7 67.5 66.1 52 48.5 0.0 0.0 --- 0.00 29.637
05/15/2005 9:00 p 65.7 65.7 65.7 66.1 65.3 52 47.6 0.0 0.0 --- 0.00 29.638
05/15/2005 9:30 p 64.9 64.9 64.9 65.3 64.5 62 51.6 0.0 0.0 --- 0.00 29.648
05/15/2005 10:00 p 64.2 64.2 64.2 64.5 63.9 60 50.0 0.0 0.0 --- 0.00 29.650
05/15/2005 10:30 p 63.7 63.7 63.7 64.1 63.4 61 50.0 0.0 0.0 --- 0.00 29.650
05/15/2005 11:00 p 63.2 63.2 63.2 63.4 62.7 63 50.4 0.0 0.0 --- 0.00 29.653
05/15/2005 11:30 p 62.3 62.3 62.3 62.7 61.9 65 50.4 0.0 0.0 --- 0.00 29.662
05/16/2005 12:00 a 61.6 61.6 61.6 62.0 61.2 68 50.9 0.0 0.0 --- 0.00 29.662
05/16/2005 12:30 a 60.6 60.6 60.6 61.2 59.9 72 51.5 0.0 0.0 --- 0.00 29.658
05/16/2005 1:00 a 59.2 59.2 59.2 59.9 58.6 74 50.9 0.0 0.0 --- 0.00 29.646
05/16/2005 1:30 a 58.3 58.3 58.3 58.6 57.6 77 51.1 0.0 0.0 --- 0.00 29.639
05/16/2005 2:00 a 57.6 57.6 57.6 57.8 57.4 79 51.1 0.0 0.0 --- 0.00 29.648
05/16/2005 2:30 a 57.8 57.8 57.8 58.5 57.5 78 51.0 0.0 0.0 --- 0.00 29.653
05/16/2005 3:00 a 59.6 59.6 59.6 60.3 58.5 73 50.9 0.0 0.0 --- 0.00 29.657
05/16/2005 3:30 a 60.8 60.8 60.8 61.7 60.3 63 48.1 0.0 2.0 N 0.00 29.662
05/16/2005 4:00 a 62.0 62.0 62.0 62.3 61.4 63 49.3 0.0 3.0 SE 0.00 29.677
05/16/2005 4:30 a 60.9 60.9 60.9 61.4 60.1 63 48.2 0.0 3.0 ESE 0.00 29.679
05/16/2005 5:00 a 58.6 58.6 58.6 60.1 57.9 67 47.7 0.0 3.0 ESE 0.00 29.690
05/16/2005 5:30 a 58.0 58.0 58.0 58.1 57.8 65 46.3 0.0 1.0 ESE 0.00 29.691
05/16/2005 6:00 a 57.7 57.7 57.7 57.8 57.5 65 46.0 0.0 1.0 --- 0.00 29.713
05/16/2005 6:30 a 56.8 56.8 56.8 57.7 55.9 75 49.0 0.0 2.0 ESE 0.00 29.722
05/16/2005 7:00 a 56.3 56.3 56.3 56.6 55.3 84 51.5 0.0 5.0 ESE 0.00 29.747
05/16/2005 7:30 a 55.4 55.4 55.4 56.5 54.9 78 48.7 0.0 4.0 ESE 0.00 29.745
05/16/2005 8:00 a 57.3 57.3 57.3 58.2 56.5 65 45.7 1.0 4.0 ESE 0.00 29.765
05/16/2005 8:30 a 58.3 58.3 58.3 59.1 57.8 63 45.8 0.0 5.0 ESE 0.00 29.784
05/16/2005 9:00 a 60.6 60.6 60.6 61.6 59.1 62 47.5 0.0 3.0 E 0.00 29.785
05/16/2005 9:30 a 61.7 61.7 61.7 63.0 60.8 60 47.7 0.0 4.0 E 0.00 29.784
05/16/2005 10:00 a 63.8 63.8 63.8 64.7 63.0 58 48.8 0.0 3.0 ENE 0.00 29.783
05/16/2005 10:30 a 65.5 65.5 65.5 67.0 64.7 51 46.9 0.0 3.0 NW 0.00 29.788
05/16/2005 11:00 a 66.9 66.9 66.9 67.8 66.4 52 48.7 0.0 4.0 ESE 0.00 29.785
05/16/2005 11:30 a 67.2 67.2 67.2 68.2 66.4 45 45.2 0.0 5.0 E 0.00 29.782
05/16/2005 12:00 p 67.0 68.8 68.8 69.7 68.2 43 45.4 0.0 3.0 E 0.00 29.780
05/16/2005 12:30 p 71.0 72.9 72.9 79.2 68.8 33 42.1 0.0 3.0 NNE 0.00 29.771
05/16/2005 1:00 p 75.0 77.0 77.0 84.3 72.9 24 37.5 0.0 3.0 E 0.00 29.770
05/16/2005 1:30 p 83.8 87.4 87.4 89.7 80.4 24 46.2 0.0 3.0 NNW 0.00 29.766
05/16/2005 2:00 p 79.0 80.8 80.8 84.8 77.9 23 39.6 1.0 4.0 ESE 0.00 29.771
05/16/2005 2:30 p 76.0 78.1 78.1 84.0 73.8 29 43.3 0.0 3.0 ESE 0.00 29.764
05/16/2005 3:00 p 71.0 72.8 72.8 76.8 70.2 32 41.3 0.0 3.0 ESE 0.00 29.762
05/16/2005 3:30 p 71.6 74.2 74.2 75.2 72.6 28 39.0 0.0 2.0 N 0.00 29.748
05/16/2005 4:00 p 72.0 73.5 73.5 75.5 71.5 33 42.7 0.0 2.0 NNW 0.00 29.755
05/16/2005 4:30 p 67.6 70.9 70.9 71.7 70.2 33 40.4 0.0 3.0 E 0.00 29.756
05/16/2005 5:00 p 70.4 72.7 72.7 76.8 71.0 27 36.8 0.0 3.0 E 0.00 29.757
05/16/2005 5:30 p 74.0 75.8 75.8 80.6 71.1 31 43.0 0.0 3.0 SE 0.00 29.764
05/16/2005 6:00 p 66.6 69.8 69.8 71.1 69.0 33 39.4 0.0 2.0 SSW 0.00 29.765
05/16/2005 6:30 p 65.2 68.0 68.0 69.0 67.5 36 40.1 0.0 2.0 SSW 0.00 29.775
05/16/2005 7:00 p 67.3 67.3 67.3 67.5 66.7 37 40.2 0.0 2.0 NE 0.00 29.781
05/16/2005 7:30 p 65.7 65.7 65.7 66.7 64.9 40 40.7 0.0 1.0 SW 0.00 29.800
05/16/2005 8:00 p 63.9 63.9 63.9 64.8 62.9 44 41.6 0.0 2.0 N 0.00 29.812
05/16/2005 8:30 p 62.1 62.1 62.1 62.9 61.3 45 40.5 0.0 1.0 E 0.00 29.822
05/16/2005 9:00 p 60.7 60.7 60.7 61.3 59.9 48 40.9 0.0 1.0 --- 0.00 29.834
05/16/2005 9:30 p 59.6 59.6 59.6 59.9 59.1 49 40.4 0.0 1.0 NNW 0.00 29.848
05/16/2005 10:00 p 58.4 58.4 58.4 59.1 57.8 52 40.9 0.0 0.0 --- 0.00 29.856
05/16/2005 10:30 p 57.5 57.5 57.5 57.8 57.3 54 41.0 0.0 0.0 --- 0.00 29.866
05/16/2005 11:00 p 57.4 57.4 57.4 57.5 56.9 56 41.8 0.0 0.0 --- 0.00 29.871
05/16/2005 11:30 p 56.3 56.3 56.3 56.9 55.7 60 42.6 0.0 0.0 --- 0.00 29.881
05/17/2005 12:00 a 55.1 55.1 55.1 55.9 54.3 63 42.7 0.0 0.0 --- 0.00 29.891
05/17/2005 12:30 a 53.6 53.6 53.6 54.3 52.8 66 42.5 0.0 0.0 --- 0.00 29.899
05/17/2005 1:00 a 52.5 52.5 52.5 52.8 52.3 68 42.3 0.0 0.0 --- 0.00 29.897
05/17/2005 1:30 a 52.4 52.4 52.4 52.6 51.9 68 42.2 0.0 0.0 --- 0.00 29.895
05/17/2005 2:00 a 51.3 51.3 51.3 51.9 50.9 73 43.0 0.0 0.0 --- 0.00 29.900
05/17/2005 2:30 a 50.9 50.9 50.9 51.0 50.6 73 42.6 0.0 0.0 --- 0.00 29.897
05/17/2005 3:00 a 51.2 51.2 51.2 51.5 50.7 74 43.2 0.0 0.0 --- 0.00 29.900
05/17/2005 3:30 a 49.3 49.3 49.3 50.7 48.2 77 42.4 0.0 0.0 --- 0.00 29.904
05/17/2005 4:00 a 49.1 49.1 49.1 50.3 48.1 73 40.8 0.0 0.0 --- 0.00 29.905
05/17/2005 4:30 a 48.4 48.4 48.4 50.1 47.3 80 42.5 0.0 0.0 --- 0.00 29.916
05/17/2005 5:00 a 46.9 46.9 46.9 47.3 46.6 79 40.7 0.0 0.0 --- 0.00 29.930
05/17/2005 5:30 a 47.8 47.8 47.8 49.1 46.9 71 38.9 0.0 2.0 ESE 0.00 29.940
05/17/2005 6:00 a 49.4 49.4 49.4 49.5 49.2 71 40.4 0.0 1.0 ESE 0.00 29.958
05/17/2005 6:30 a 49.6 49.6 49.6 50.1 49.4 71 40.6 0.0 1.0 --- 0.00 29.967
05/17/2005 7:00 a 50.7 50.7 50.7 51.7 50.1 70 41.3 0.0 1.0 --- 0.00 29.978
05/17/2005 7:30 a 53.6 53.6 53.6 54.5 51.7 63 41.3 0.0 2.0 ESE 0.00 29.987
05/17/2005 8:00 a 54.5 54.5 54.5 55.0 54.0 61 41.3 0.0 2.0 ESE 0.00 29.991
05/17/2005 8:30 a 55.6 55.6 55.6 56.9 55.0 56 40.2 0.0 4.0 SW 0.00 30.002
05/17/2005 9:00 a 57.3 57.3 57.3 57.6 56.9 55 41.3 0.0 3.0 ESE 0.00 30.007
05/17/2005 9:30 a 59.2 59.2 59.2 59.9 57.6 49 40.1 0.0 2.0 NNE 0.00 29.997
05/17/2005 10:00 a 60.1 60.1 60.1 60.8 59.3 46 39.3 0.0 3.0 E 0.00 30.002
05/17/2005 10:30 a 61.9 61.9 61.9 63.8 60.4 38 36.0 0.0 3.0 E 0.00 29.994
05/17/2005 11:00 a 62.7 62.7 62.7 63.8 62.3 42 39.3 0.0 3.0 E 0.00 29.992
05/17/2005 11:30 a 62.9 62.9 62.9 64.2 62.0 38 36.9 0.0 3.0 SE 0.00 29.979
05/17/2005 12:00 p 65.0 65.0 65.0 66.9 63.0 34 36.0 0.0 2.0 SSW 0.00 29.968
05/17/2005 12:30 p 71.4 75.0 75.0 81.7 67.0 22 33.6 0.0 3.0 SE 0.00 29.960
05/17/2005 1:00 p 76.0 77.8 77.8 82.3 72.4 21 34.8 0.0 3.0 E 0.00 29.950
05/17/2005 1:30 p 75.0 76.8 76.8 82.9 70.4 20 32.7 0.0 3.0 ESE 0.00 29.941
05/17/2005 2:00 p 77.0 79.1 79.1 86.1 71.2 21 35.9 0.0 3.0 WNW 0.00 29.938
05/17/2005 2:30 p 79.6 82.4 82.4 86.1 78.0 18 34.7 0.0 4.0 WNW 0.00 29.929
05/17/2005 3:00 p 76.0 77.7 77.7 86.4 72.9 29 42.9 0.0 3.0 ESE 0.00 29.924
05/17/2005 3:30 p 69.0 71.7 71.7 72.9 70.7 30 38.6 0.0 3.0 WNW 0.00 29.914
05/17/2005 4:00 p 68.8 71.8 71.8 72.3 70.3 28 37.0 0.0 3.0 WNW 0.00 29.914
05/17/2005 4:30 p 66.0 70.4 70.4 71.1 69.7 29 36.7 0.0 4.0 WSW 0.00 29.908
05/17/2005 5:00 p 66.8 68.5 68.5 70.8 65.3 39 42.6 0.0 3.0 ESE 0.00 29.911
05/17/2005 5:30 p 64.6 68.4 68.4 70.7 65.0 33 38.2 0.0 3.0 WNW 0.00 29.907
05/17/2005 6:00 p 66.6 66.6 66.6 67.4 65.7 34 37.4 0.0 1.0 NW 0.00 29.904
05/17/2005 6:30 p 65.1 65.1 65.1 65.7 64.3 39 39.6 0.0 1.0 NNE 0.00 29.908
05/17/2005 7:00 p 63.7 63.7 63.7 64.3 63.5 39 38.3 0.0 1.0 NNE 0.00 29.910
05/17/2005 7:30 p 62.7 62.7 62.7 63.6 61.5 46 41.6 0.0 0.0 --- 0.00 29.919
05/17/2005 8:00 p 60.3 60.3 60.3 61.5 59.1 48 40.5 0.0 0.0 --- 0.00 29.926
05/17/2005 8:30 p 58.0 58.0 58.0 59.1 56.9 54 41.5 0.0 0.0 --- 0.00 29.930
05/17/2005 9:00 p 56.4 56.4 56.4 56.9 56.0 57 41.4 0.0 0.0 --- 0.00 29.934
05/17/2005 9:30 p 55.3 55.3 55.3 56.0 54.6 60 41.7 0.0 0.0 --- 0.00 29.943
05/17/2005 10:00 p 54.7 54.7 54.7 54.9 54.4 65 43.2 0.0 0.0 --- 0.00 29.946
05/17/2005 10:30 p 54.1 54.1 54.1 54.4 53.8 68 43.8 0.0 0.0 --- 0.00 29.944
05/17/2005 11:00 p 53.8 53.8 53.8 54.0 53.3 70 44.3 0.0 0.0 --- 0.00 29.947
05/17/2005 11:30 p 51.9 51.9 51.9 53.3 51.0 76 44.6 0.0 0.0 --- 0.00 29.950
05/18/2005 12:00 a 51.0 51.0 51.0 51.2 50.7 76 43.7 0.0 0.0 --- 0.00 29.966
05/18/2005 12:30 a 50.4 50.4 50.4 50.8 49.5 80 44.5 0.0 0.0 --- 0.00 29.960
05/18/2005 1:00 a 48.9 48.9 48.9 49.5 48.4 83 44.0 0.0 0.0 --- 0.00 29.959
05/18/2005 1:30 a 47.4 47.4 47.4 48.4 46.5 87 43.7 0.0 0.0 --- 0.00 29.955
05/18/2005 2:00 a 46.3 46.3 46.3 46.5 46.1 87 42.6 0.0 0.0 --- 0.00 29.954
05/18/2005 2:30 a 46.5 46.5 46.5 46.7 46.2 84 41.9 0.0 0.0 --- 0.00 29.961
05/18/2005 3:00 a 47.0 47.0 47.0 47.8 46.6 79 40.8 0.0 0.0 --- 0.00 29.959
05/18/2005 3:30 a 48.6 48.6 48.6 49.1 47.8 76 41.4 0.0 0.0 --- 0.00 29.950
05/18/2005 4:00 a 49.1 49.1 49.1 50.1 48.8 68 39.0 0.0 0.0 --- 0.00 29.957
05/18/2005 4:30 a 50.2 50.2 50.2 50.3 50.0 65 38.9 0.0 0.0 --- 0.00 29.961
05/18/2005 5:00 a 50.2 50.2 50.2 50.4 50.1 65 38.9 0.0 0.0 --- 0.00 29.972
05/18/2005